Wetterdaten: Sonntag, 29.03.2020
Datum Zeit Temp. Aussen Temp. o. S. Temp +5cm Feuchte Auss Luftdruck Regen Sonnenschein Regendauer Solar Windben Empfang
29.03.2020 00:00 4,6 C 3,3 C 3,3 C 79 % 1026,4 hPa 0,0 l/m 0 min 0 min 0 W/m 19,3 km/h (3 Bft) 78,72 %
29.03.2020 00:02 4,6 C 3,3 C 3,3 C 80 % 1026,3 hPa 0,0 l/m 0 min 0 min 0 W/m 0,0 km/h (0 Bft) 50,00 %
29.03.2020 00:04 4,6 C 3,3 C 3,3 C 80 % 1026,3 hPa 0,0 l/m 0 min 0 min 0 W/m 0,0 km/h (0 Bft) 95,65 %
29.03.2020 00:08 4,5 C 3,3 C 2,8 C 80 % 1026,4 hPa 0,0 l/m 0 min 0 min 0 W/m 0,0 km/h (0 Bft) 95,74 %
29.03.2020 00:10 4,5 C 3,3 C 2,8 C 80 % 1026,4 hPa 0,0 l/m 0 min 0 min 0 W/m 12,9 km/h (3 Bft) 95,74 %
29.03.2020 00:12 4,4 C 3,3 C 2,8 C 80 % 1026,4 hPa 0,0 l/m 0 min 0 min 0 W/m 12,9 km/h (3 Bft) 95,74 %
29.03.2020 00:14 4,4 C 3,3 C 2,8 C 80 % 1026,4 hPa 0,0 l/m 0 min 0 min 0 W/m 6,4 km/h (2 Bft) 93,48 %
29.03.2020 00:16 4,4 C 3,3 C 2,8 C 80 % 1026,4 hPa 0,0 l/m 0 min 0 min 0 W/m 0,0 km/h (0 Bft) 97,87 %
29.03.2020 00:18 4,4 C 3,3 C 2,8 C 80 % 1026,4 hPa 0,0 l/m 0 min 0 min 0 W/m 0,0 km/h (0 Bft) 95,74 %
29.03.2020 00:20 4,4 C 3,3 C 2,8 C 80 % 1026,5 hPa 0,0 l/m 0 min 0 min 0 W/m 0,0 km/h (0 Bft) 100,00 %
29.03.2020 00:22 4,4 C 3,3 C 2,8 C 81 % 1026,5 hPa 0,0 l/m 0 min 0 min 0 W/m 0,0 km/h (0 Bft) 100,00 %
29.03.2020 00:24 4,4 C 3,3 C 3,3 C 81 % 1026,4 hPa 0,0 l/m 0 min 0 min 0 W/m 0,0 km/h (0 Bft) 100,00 %
29.03.2020 00:26 4,4 C 3,3 C 3,3 C 81 % 1026,4 hPa 0,0 l/m 0 min 0 min 0 W/m 0,0 km/h (0 Bft) 100,00 %
29.03.2020 00:28 4,4 C 3,9 C 3,3 C 81 % 1026,4 hPa 0,0 l/m 0 min 0 min 0 W/m 12,9 km/h (3 Bft) 100,00 %
29.03.2020 00:30 4,4 C 3,9 C 3,3 C 81 % 1026,5 hPa 0,0 l/m 0 min 0 min 0 W/m 12,9 km/h (3 Bft) 100,00 %
29.03.2020 00:32 4,4 C 3,9 C 3,3 C 81 % 1026,5 hPa 0,0 l/m 0 min 0 min 0 W/m 9,7 km/h (2 Bft) 100,00 %
29.03.2020 00:34 4,4 C 3,9 C 3,9 C 82 % 1026,5 hPa 0,0 l/m 0 min 0 min 0 W/m 0,0 km/h (0 Bft) 100,00 %
29.03.2020 00:36 4,4 C 3,9 C 3,9 C 82 % 1026,5 hPa 0,0 l/m 0 min 0 min 0 W/m 12,9 km/h (3 Bft) 100,00 %
29.03.2020 00:38 4,4 C 3,9 C 3,9 C 82 % 1026,5 hPa 0,0 l/m 0 min 0 min 0 W/m 12,9 km/h (3 Bft) 100,00 %
29.03.2020 00:40 4,4 C 3,9 C 3,9 C 82 % 1026,5 hPa 0,0 l/m 0 min 0 min 0 W/m 16,1 km/h (3 Bft) 100,00 %
29.03.2020 00:42 4,4 C 3,9 C 3,3 C 82 % 1026,4 hPa 0,0 l/m 0 min 0 min 0 W/m 19,3 km/h (3 Bft) 97,87 %
29.03.2020 00:44 4,4 C 3,9 C 3,3 C 81 % 1026,4 hPa 0,0 l/m 0 min 0 min 0 W/m 29,0 km/h (5 Bft) 100,00 %
29.03.2020 00:46 4,4 C 3,9 C 3,3 C 80 % 1026,4 hPa 0,0 l/m 0 min 0 min 0 W/m 22,5 km/h (4 Bft) 100,00 %
29.03.2020 00:48 4,4 C 3,3 C 3,3 C 79 % 1026,5 hPa 0,0 l/m 0 min 0 min 0 W/m 19,3 km/h (3 Bft) 100,00 %
29.03.2020 00:50 4,4 C 3,3 C 3,3 C 79 % 1026,5 hPa 0,0 l/m 0 min 0 min 0 W/m 22,5 km/h (4 Bft) 100,00 %
29.03.2020 00:52 4,4 C 3,3 C 3,3 C 78 % 1026,5 hPa 0,0 l/m 0 min 0 min 0 W/m 19,3 km/h (3 Bft) 100,00 %
29.03.2020 00:54 4,3 C 3,3 C 3,3 C 78 % 1026,4 hPa 0,0 l/m 0 min 0 min 0 W/m 3,2 km/h (1 Bft) 100,00 %
29.03.2020 00:56 4,3 C 3,3 C 2,8 C 78 % 1026,5 hPa 0,0 l/m 0 min 0 min 0 W/m 0,0 km/h (0 Bft) 97,87 %
29.03.2020 00:58 4,3 C 3,3 C 2,8 C 78 % 1026,5 hPa 0,0 l/m 0 min 0 min 0 W/m 12,9 km/h (3 Bft) 97,87 %
29.03.2020 01:00 4,3 C 3,3 C 2,8 C 78 % 1026,5 hPa 0,0 l/m 0 min 0 min 0 W/m 16,1 km/h (3 Bft) 47,62 %
29.03.2020 01:02 4,3 C 3,3 C 2,8 C 78 % 1026,5 hPa 0,0 l/m 0 min 0 min 0 W/m 16,1 km/h (3 Bft) 93,62 %
29.03.2020 01:04 4,2 C 2,8 C 2,8 C 78 % 1026,5 hPa 0,0 l/m 0 min 0 min 0 W/m 12,9 km/h (3 Bft) 97,78 %
29.03.2020 01:06 4,2 C 2,8 C 2,8 C 78 % 1026,6 hPa 0,0 l/m 0 min 0 min 0 W/m 16,1 km/h (3 Bft) 95,65 %
29.03.2020 01:08 4,2 C 2,8 C 2,8 C 78 % 1026,5 hPa 0,0 l/m 0 min 0 min 0 W/m 22,5 km/h (4 Bft) 97,87 %
29.03.2020 01:10 4,1 C 2,8 C 2,8 C 79 % 1026,5 hPa 0,0 l/m 0 min 0 min 0 W/m 22,5 km/h (4 Bft) 97,87 %
29.03.2020 01:12 4,1 C 2,8 C 2,8 C 79 % 1026,5 hPa 0,0 l/m 0 min 0 min 0 W/m 19,3 km/h (3 Bft) 97,87 %
29.03.2020 01:14 4,1 C 2,8 C 2,8 C 79 % 1026,5 hPa 0,0 l/m 0 min 0 min 0 W/m 19,3 km/h (3 Bft) 97,87 %
29.03.2020 01:16 4,1 C 2,8 C 2,2 C 79 % 1026,5 hPa 0,0 l/m 0 min 0 min 0 W/m 16,1 km/h (3 Bft) 97,83 %
29.03.2020 01:18 4,0 C 2,8 C 2,2 C 79 % 1026,5 hPa 0,0 l/m 0 min 0 min 0 W/m 6,4 km/h (2 Bft) 95,74 %
29.03.2020 01:20 3,9 C 2,8 C 2,2 C 79 % 1026,5 hPa 0,0 l/m 0 min 0 min 0 W/m 0,0 km/h (0 Bft) 97,87 %
29.03.2020 01:22 3,9 C 2,8 C 2,2 C 79 % 1026,5 hPa 0,0 l/m 0 min 0 min 0 W/m 0,0 km/h (0 Bft) 95,74 %
29.03.2020 01:24 3,9 C 2,2 C 2,2 C 79 % 1026,5 hPa 0,0 l/m 0 min 0 min 0 W/m 9,7 km/h (2 Bft) 95,74 %
29.03.2020 01:26 3,9 C 2,2 C 2,2 C 79 % 1026,5 hPa 0,0 l/m 0 min 0 min 0 W/m 0,0 km/h (0 Bft) 97,87 %
29.03.2020 01:28 3,8 C 2,2 C 2,2 C 79 % 1026,5 hPa 0,0 l/m 0 min 0 min 0 W/m 9,7 km/h (2 Bft) 97,83 %
29.03.2020 01:30 3,8 C 2,2 C 2,2 C 79 % 1026,5 hPa 0,0 l/m 0 min 0 min 0 W/m 12,9 km/h (3 Bft) 97,87 %
29.03.2020 01:32 3,7 C 2,2 C 2,2 C 79 % 1026,5 hPa 0,0 l/m 0 min 0 min 0 W/m 0,0 km/h (0 Bft) 97,87 %
29.03.2020 01:34 3,7 C 2,2 C 2,2 C 79 % 1026,5 hPa 0,0 l/m 0 min 0 min 0 W/m 0,0 km/h (0 Bft) 97,87 %
29.03.2020 01:36 3,7 C 2,2 C 2,2 C 79 % 1026,5 hPa 0,0 l/m 0 min 0 min 0 W/m 0,0 km/h (0 Bft) 95,74 %
29.03.2020 01:38 3,6 C 2,2 C 2,2 C 79 % 1026,4 hPa 0,0 l/m 0 min 0 min 0 W/m 0,0 km/h (0 Bft) 97,87 %
29.03.2020 01:40 3,6 C 2,2 C 2,2 C 79 % 1026,5 hPa 0,0 l/m 0 min 0 min 0 W/m 3,2 km/h (1 Bft) 95,65 %
29.03.2020 01:42 3,6 C 2,2 C 1,7 C 80 % 1026,4 hPa 0,0 l/m 0 min 0 min 0 W/m 3,2 km/h (1 Bft) 97,87 %
29.03.2020 01:44 3,5 C 2,2 C 1,7 C 80 % 1026,4 hPa 0,0 l/m 0 min 0 min 0 W/m 3,2 km/h (1 Bft) 97,87 %
29.03.2020 01:46 3,4 C 2,2 C 1,7 C 80 % 1026,5 hPa 0,0 l/m 0 min 0 min 0 W/m 9,7 km/h (2 Bft) 97,87 %
29.03.2020 01:48 3,4 C 2,2 C 1,7 C 80 % 1026,4 hPa 0,0 l/m 0 min 0 min 0 W/m 0,0 km/h (0 Bft) 95,74 %
29.03.2020 01:50 3,4 C 1,7 C 1,7 C 80 % 1026,4 hPa 0,0 l/m 0 min 0 min 0 W/m 9,7 km/h (2 Bft) 95,74 %
29.03.2020 01:52 3,3 C 1,7 C 1,7 C 80 % 1026,4 hPa 0,0 l/m 0 min 0 min 0 W/m 3,2 km/h (1 Bft) 95,65 %
29.03.2020 01:54 3,3 C 1,7 C 1,7 C 80 % 1026,4 hPa 0,0 l/m 0 min 0 min 0 W/m 0,0 km/h (0 Bft) 70,21 %
29.03.2020 01:56 3,3 C 1,7 C 1,7 C 80 % 1026,3 hPa 0,0 l/m 0 min 0 min 0 W/m 6,4 km/h (2 Bft) 79,07 %
29.03.2020 01:58 3,2 C 1,7 C 1,7 C 80 % 1026,3 hPa 0,0 l/m 0 min 0 min 0 W/m 3,2 km/h (1 Bft) 95,74 %
29.03.2020 03:00 3,2 C 1,7 C 1,7 C 80 % 1026,3 hPa 0,0 l/m 0 min 0 min 0 W/m 0,0 km/h (0 Bft) 95,74 %
29.03.2020 03:02 3,1 C 1,7 C 1,7 C 80 % 1026,3 hPa 0,0 l/m 0 min 0 min 0 W/m 0,0 km/h (0 Bft) 97,87 %
29.03.2020 03:04 3,1 C 1,7 C 1,7 C 80 % 1026,3 hPa 0,0 l/m 0 min 0 min 0 W/m 0,0 km/h (0 Bft) 95,65 %
29.03.2020 03:06 3,1 C 1,7 C 1,7 C 81 % 1026,3 hPa 0,0 l/m 0 min 0 min 0 W/m 0,0 km/h (0 Bft) 95,74 %
29.03.2020 03:08 3,0 C 1,7 C 1,1 C 81 % 1026,3 hPa 0,0 l/m 0 min 0 min 0 W/m 0,0 km/h (0 Bft) 95,74 %
29.03.2020 03:10 2,9 C 1,7 C 1,1 C 81 % 1026,3 hPa 0,0 l/m 0 min 0 min 0 W/m 0,0 km/h (0 Bft) 95,74 %
29.03.2020 03:12 2,9 C 1,1 C 1,1 C 81 % 1026,3 hPa 0,0 l/m 0 min 0 min 0 W/m 0,0 km/h (0 Bft) 97,87 %
29.03.2020 03:14 2,9 C 1,1 C 1,1 C 81 % 1026,2 hPa 0,0 l/m 0 min 0 min 0 W/m 0,0 km/h (0 Bft) 97,83 %
29.03.2020 03:16 2,9 C 1,7 C 1,1 C 81 % 1026,3 hPa 0,0 l/m 0 min 0 min 0 W/m 0,0 km/h (0 Bft) 97,87 %
29.03.2020 03:18 2,8 C 1,1 C 1,1 C 81 % 1026,2 hPa 0,0 l/m 0 min 0 min 0 W/m 0,0 km/h (0 Bft) 97,87 %
29.03.2020 03:20 2,8 C 1,1 C 1,1 C 81 % 1026,3 hPa 0,0 l/m 0 min 0 min 0 W/m 3,2 km/h (1 Bft) 100,00 %
29.03.2020 03:22 2,8 C 1,1 C 1,1 C 81 % 1026,2 hPa 0,0 l/m 0 min 0 min 0 W/m 0,0 km/h (0 Bft) 100,00 %
29.03.2020 03:24 2,7 C 1,1 C 1,1 C 81 % 1026,2 hPa 0,0 l/m 0 min 0 min 0 W/m 0,0 km/h (0 Bft) 100,00 %
29.03.2020 03:26 2,7 C 1,1 C 1,1 C 81 % 1026,2 hPa 0,0 l/m 0 min 0 min 0 W/m 0,0 km/h (0 Bft) 100,00 %
29.03.2020 03:28 2,7 C 1,1 C 1,1 C 81 % 1026,2 hPa 0,0 l/m 0 min 0 min 0 W/m 0,0 km/h (0 Bft) 100,00 %
29.03.2020 03:30 2,6 C 1,1 C 1,1 C 81 % 1026,2 hPa 0,0 l/m 0 min 0 min 0 W/m 16,1 km/h (3 Bft) 100,00 %
29.03.2020 03:32 2,6 C 1,1 C 1,1 C 82 % 1026,2 hPa 0,0 l/m 0 min 0 min 0 W/m 12,9 km/h (3 Bft) 100,00 %
29.03.2020 03:34 2,6 C 1,1 C 1,1 C 82 % 1026,2 hPa 0,0 l/m 0 min 0 min 0 W/m 9,7 km/h (2 Bft) 100,00 %
29.03.2020 03:36 2,6 C 1,1 C 1,1 C 82 % 1026,2 hPa 0,0 l/m 0 min 0 min 0 W/m 3,2 km/h (1 Bft) 100,00 %
29.03.2020 03:38 2,5 C 1,1 C 1,1 C 82 % 1026,2 hPa 0,0 l/m 0 min 0 min 0 W/m 0,0 km/h (0 Bft) 100,00 %
29.03.2020 03:40 2,4 C 1,1 C 1,1 C 82 % 1026,2 hPa 0,0 l/m 0 min 0 min 0 W/m 0,0 km/h (0 Bft) 100,00 %
29.03.2020 03:42 2,4 C 1,1 C 1,1 C 82 % 1026,2 hPa 0,0 l/m 0 min 0 min 0 W/m 9,7 km/h (2 Bft) 100,00 %
29.03.2020 03:44 2,4 C 1,1 C 1,1 C 82 % 1026,1 hPa 0,0 l/m 0 min 0 min 0 W/m 3,2 km/h (1 Bft) 53,49 %
29.03.2020 03:46 2,4 C 1,1 C 1,1 C 82 % 1026,1 hPa 0,0 l/m 0 min 0 min 0 W/m 0,0 km/h (0 Bft) 100,00 %
29.03.2020 03:48 2,3 C 1,1 C 1,1 C 82 % 1026,1 hPa 0,0 l/m 0 min 0 min 0 W/m 0,0 km/h (0 Bft) 100,00 %
29.03.2020 03:50 2,3 C 1,1 C 1,1 C 82 % 1026,1 hPa 0,0 l/m 0 min 0 min 0 W/m 6,4 km/h (2 Bft) 100,00 %
29.03.2020 03:52 2,3 C 1,1 C 1,1 C 82 % 1026,1 hPa 0,0 l/m 0 min 0 min 0 W/m 6,4 km/h (2 Bft) 100,00 %
29.03.2020 03:54 2,3 C 1,1 C 1,1 C 82 % 1026,1 hPa 0,0 l/m 0 min 0 min 0 W/m 3,2 km/h (1 Bft) 100,00 %
29.03.2020 03:56 2,2 C 1,1 C 1,1 C 82 % 1026,0 hPa 0,0 l/m 0 min 0 min 0 W/m 6,4 km/h (2 Bft) 100,00 %
29.03.2020 03:58 2,2 C 1,1 C 1,1 C 82 % 1026,0 hPa 0,0 l/m 0 min 0 min 0 W/m 9,7 km/h (2 Bft) 97,87 %
29.03.2020 04:00 2,2 C 1,1 C 1,1 C 82 % 1026,0 hPa 0,0 l/m 0 min 0 min 0 W/m 0,0 km/h (0 Bft) 97,83 %
29.03.2020 04:02 2,2 C 1,1 C 1,1 C 82 % 1026,0 hPa 0,0 l/m 0 min 0 min 0 W/m 12,9 km/h (3 Bft) 100,00 %
29.03.2020 04:04 2,2 C 1,1 C 1,1 C 83 % 1026,0 hPa 0,0 l/m 0 min 0 min 0 W/m 0,0 km/h (0 Bft) 97,87 %
29.03.2020 04:06 2,2 C 1,1 C 1,1 C 83 % 1026,0 hPa 0,0 l/m 0 min 0 min 0 W/m 3,2 km/h (1 Bft) 100,00 %
29.03.2020 04:08 2,1 C 1,1 C 1,1 C 83 % 1025,9 hPa 0,0 l/m 0 min 0 min 0 W/m 0,0 km/h (0 Bft) 100,00 %
29.03.2020 04:10 2,1 C 1,1 C 1,1 C 82 % 1026,0 hPa 0,0 l/m 0 min 0 min 0 W/m 0,0 km/h (0 Bft) 100,00 %
29.03.2020 04:12 2,1 C 1,1 C 1,1 C 82 % 1025,9 hPa 0,0 l/m 0 min 0 min 0 W/m 0,0 km/h (0 Bft) 100,00 %
29.03.2020 04:14 2,1 C 1,1 C 1,1 C 82 % 1026,0 hPa 0,0 l/m 0 min 0 min 0 W/m 6,4 km/h (2 Bft) 100,00 %
29.03.2020 04:16 2,1 C 1,1 C 0,6 C 83 % 1025,9 hPa 0,0 l/m 0 min 0 min 0 W/m 6,4 km/h (2 Bft) 100,00 %
29.03.2020 04:18 2,1 C 1,1 C 1,1 C 83 % 1025,9 hPa 0,0 l/m 0 min 0 min 0 W/m 9,7 km/h (2 Bft) 100,00 %
29.03.2020 04:20 2,1 C 1,1 C 1,1 C 83 % 1025,9 hPa 0,0 l/m 0 min 0 min 0 W/m 0,0 km/h (0 Bft) 95,74 %
29.03.2020 04:22 2,0 C 1,1 C 1,1 C 83 % 1025,9 hPa 0,0 l/m 0 min 0 min 0 W/m 0,0 km/h (0 Bft) 97,87 %
29.03.2020 04:24 2,0 C 1,1 C 1,1 C 83 % 1025,9 hPa 0,0 l/m 0 min 0 min 0 W/m 3,2 km/h (1 Bft) 95,65 %
29.03.2020 04:26 2,0 C 1,1 C 1,1 C 83 % 1025,8 hPa 0,0 l/m 0 min 0 min 0 W/m 3,2 km/h (1 Bft) 100,00 %
29.03.2020 04:28 2,0 C 1,1 C 1,1 C 83 % 1025,8 hPa 0,0 l/m 0 min 0 min 0 W/m 0,0 km/h (0 Bft) 100,00 %
29.03.2020 04:30 2,0 C 1,1 C 1,1 C 83 % 1025,8 hPa 0,0 l/m 0 min 0 min 0 W/m 0,0 km/h (0 Bft) 95,74 %
29.03.2020 04:32 2,0 C 1,1 C 1,1 C 83 % 1025,8 hPa 0,0 l/m 0 min 0 min 0 W/m 0,0 km/h (0 Bft) 100,00 %
29.03.2020 04:34 2,0 C 1,1 C 1,1 C 83 % 1025,9 hPa 0,0 l/m 0 min 0 min 0 W/m 6,4 km/h (2 Bft) 100,00 %
29.03.2020 04:36 2,0 C 1,1 C 1,1 C 83 % 1025,8 hPa 0,0 l/m 0 min 0 min 0 W/m 6,4 km/h (2 Bft) 100,00 %
29.03.2020 04:38 2,0 C 1,1 C 1,1 C 83 % 1025,8 hPa 0,0 l/m 0 min 0 min 0 W/m 6,4 km/h (2 Bft) 97,87 %
29.03.2020 04:40 2,0 C 1,1 C 1,7 C 83 % 1025,7 hPa 0,0 l/m 0 min 0 min 0 W/m 0,0 km/h (0 Bft) 97,87 %
29.03.2020 04:42 2,0 C 1,7 C 1,7 C 83 % 1025,7 hPa 0,0 l/m 0 min 0 min 0 W/m 0,0 km/h (0 Bft) 97,87 %
29.03.2020 04:44 2,0 C 1,7 C 1,7 C 83 % 1025,7 hPa 0,0 l/m 0 min 0 min 0 W/m 0,0 km/h (0 Bft) 95,74 %
29.03.2020 04:46 2,1 C 1,7 C 1,7 C 83 % 1025,7 hPa 0,0 l/m 0 min 0 min 0 W/m 0,0 km/h (0 Bft) 93,62 %
29.03.2020 04:48 2,1 C 1,7 C 1,7 C 84 % 1025,7 hPa 0,0 l/m 0 min 0 min 0 W/m 6,4 km/h (2 Bft) 93,48 %
29.03.2020 04:50 2,1 C 1,7 C 1,7 C 84 % 1025,6 hPa 0,0 l/m 0 min 0 min 0 W/m 0,0 km/h (0 Bft) 95,74 %
29.03.2020 04:52 2,1 C 1,1 C 1,7 C 84 % 1025,6 hPa 0,0 l/m 0 min 0 min 0 W/m 3,2 km/h (1 Bft) 97,87 %
29.03.2020 04:54 2,1 C 1,1 C 1,7 C 84 % 1025,6 hPa 0,0 l/m 0 min 0 min 0 W/m 0,0 km/h (0 Bft) 95,74 %
29.03.2020 04:56 2,1 C 1,7 C 1,1 C 84 % 1025,6 hPa 0,0 l/m 0 min 0 min 0 W/m 0,0 km/h (0 Bft) 95,74 %
29.03.2020 04:58 2,1 C 1,7 C 1,7 C 84 % 1025,7 hPa 0,0 l/m 0 min 0 min 0 W/m 9,7 km/h (2 Bft) 95,74 %
29.03.2020 05:00 2,1 C 1,7 C 1,7 C 84 % 1025,6 hPa 0,0 l/m 0 min 0 min 0 W/m 9,7 km/h (2 Bft) 93,48 %
29.03.2020 05:02 2,1 C 1,7 C 1,7 C 84 % 1025,6 hPa 0,0 l/m 0 min 0 min 0 W/m 3,2 km/h (1 Bft) 93,62 %
29.03.2020 05:04 2,1 C 1,7 C 1,7 C 84 % 1025,6 hPa 0,0 l/m 0 min 0 min 0 W/m 0,0 km/h (0 Bft) 95,74 %
29.03.2020 05:06 2,1 C 1,7 C 1,7 C 84 % 1025,7 hPa 0,0 l/m 0 min 0 min 0 W/m 0,0 km/h (0 Bft) 91,49 %
29.03.2020 05:08 2,1 C 1,7 C 1,7 C 84 % 1025,7 hPa 0,0 l/m 0 min 0 min 0 W/m 3,2 km/h (1 Bft) 95,74 %
29.03.2020 05:10 2,2 C 1,7 C 1,7 C 84 % 1025,7 hPa 0,0 l/m 0 min 0 min 0 W/m 6,4 km/h (2 Bft) 93,48 %
29.03.2020 05:12 2,2 C 1,7 C 1,7 C 84 % 1025,7 hPa 0,0 l/m 0 min 0 min 0 W/m 0,0 km/h (0 Bft) 91,49 %
29.03.2020 05:14 2,2 C 1,7 C 1,7 C 84 % 1025,7 hPa 0,0 l/m 0 min 0 min 0 W/m 9,7 km/h (2 Bft) 93,62 %
29.03.2020 05:16 2,2 C 1,7 C 1,7 C 84 % 1025,7 hPa 0,0 l/m 0 min 0 min 0 W/m 0,0 km/h (0 Bft) 93,62 %
29.03.2020 05:18 2,2 C 1,7 C 1,7 C 84 % 1025,7 hPa 0,0 l/m 0 min 0 min 0 W/m 9,7 km/h (2 Bft) 95,74 %
29.03.2020 05:20 2,2 C 1,7 C 1,7 C 84 % 1025,7 hPa 0,0 l/m 0 min 0 min 0 W/m 12,9 km/h (3 Bft) 95,74 %
29.03.2020 05:22 2,3 C 2,2 C 1,7 C 84 % 1025,7 hPa 0,0 l/m 0 min 0 min 0 W/m 16,1 km/h (3 Bft) 95,65 %
29.03.2020 05:24 2,3 C 2,2 C 1,7 C 84 % 1025,7 hPa 0,0 l/m 0 min 0 min 0 W/m 19,3 km/h (3 Bft) 95,74 %
29.03.2020 05:26 2,3 C 2,2 C 1,7 C 84 % 1025,7 hPa 0,0 l/m 0 min 0 min 0 W/m 6,4 km/h (2 Bft) 95,74 %
29.03.2020 05:28 2,4 C 2,2 C 1,7 C 84 % 1025,7 hPa 0,0 l/m 0 min 0 min 0 W/m 6,4 km/h (2 Bft) 95,74 %
29.03.2020 05:30 2,4 C 2,2 C 2,2 C 84 % 1025,8 hPa 0,0 l/m 0 min 0 min 0 W/m 6,4 km/h (2 Bft) 93,62 %
29.03.2020 05:32 2,4 C 2,2 C 2,2 C 85 % 1025,8 hPa 0,0 l/m 0 min 0 min 0 W/m 19,3 km/h (3 Bft) 93,62 %
29.03.2020 05:34 2,5 C 2,2 C 2,2 C 85 % 1025,8 hPa 0,0 l/m 0 min 0 min 0 W/m 22,5 km/h (4 Bft) 95,65 %
29.03.2020 05:36 2,6 C 2,2 C 2,2 C 84 % 1025,8 hPa 0,0 l/m 0 min 0 min 0 W/m 19,3 km/h (3 Bft) 93,62 %
29.03.2020 05:38 2,6 C 2,2 C 2,2 C 84 % 1025,8 hPa 0,0 l/m 0 min 0 min 0 W/m 19,3 km/h (3 Bft) 95,74 %
29.03.2020 05:40 2,7 C 2,2 C 2,2 C 84 % 1025,8 hPa 0,0 l/m 0 min 0 min 0 W/m 19,3 km/h (3 Bft) 95,74 %
29.03.2020 05:42 2,7 C 2,2 C 2,2 C 84 % 1025,8 hPa 0,0 l/m 0 min 0 min 0 W/m 19,3 km/h (3 Bft) 95,74 %
29.03.2020 05:44 2,7 C 2,2 C 2,2 C 84 % 1025,8 hPa 0,0 l/m 0 min 0 min 0 W/m 12,9 km/h (3 Bft) 95,74 %
29.03.2020 05:46 2,8 C 2,2 C 2,2 C 84 % 1025,8 hPa 0,0 l/m 0 min 0 min 0 W/m 12,9 km/h (3 Bft) 95,65 %
29.03.2020 05:48 2,8 C 2,2 C 2,2 C 84 % 1025,8 hPa 0,0 l/m 0 min 0 min 0 W/m 6,4 km/h (2 Bft) 93,62 %
29.03.2020 05:50 2,8 C 2,2 C 2,2 C 84 % 1025,8 hPa 0,0 l/m 0 min 0 min 0 W/m 9,7 km/h (2 Bft) 95,74 %
29.03.2020 05:52 2,8 C 2,2 C 2,2 C 84 % 1025,8 hPa 0,0 l/m 0 min 0 min 0 W/m 9,7 km/h (2 Bft) 95,74 %
29.03.2020 05:54 2,8 C 2,2 C 1,7 C 84 % 1025,8 hPa 0,0 l/m 0 min 0 min 0 W/m 16,1 km/h (3 Bft) 95,74 %
29.03.2020 05:56 2,8 C 2,2 C 1,7 C 84 % 1025,8 hPa 0,0 l/m 0 min 0 min 0 W/m 16,1 km/h (3 Bft) 100,00 %
29.03.2020 05:58 2,8 C 2,2 C 1,7 C 84 % 1025,7 hPa 0,0 l/m 0 min 0 min 0 W/m 0,0 km/h (0 Bft) 100,00 %
29.03.2020 06:00 2,8 C 2,2 C 1,7 C 84 % 1025,8 hPa 0,0 l/m 0 min 0 min 0 W/m 0,0 km/h (0 Bft) 97,87 %
29.03.2020 06:02 2,8 C 2,2 C 1,7 C 84 % 1025,7 hPa 0,0 l/m 0 min 0 min 0 W/m 22,5 km/h (4 Bft) 100,00 %
29.03.2020 06:04 2,8 C 2,2 C 1,7 C 84 % 1025,8 hPa 0,0 l/m 0 min 0 min 0 W/m 6,4 km/h (2 Bft) 100,00 %
29.03.2020 06:08 2,8 C 1,7 C 1,7 C 84 % 1025,8 hPa 0,0 l/m 0 min 0 min 0 W/m 16,1 km/h (3 Bft) 97,85 %
29.03.2020 06:10 2,8 C 1,7 C 1,7 C 84 % 1025,8 hPa 0,0 l/m 0 min 0 min 0 W/m 19,3 km/h (3 Bft) 97,87 %
29.03.2020 06:12 2,8 C 1,7 C 1,7 C 84 % 1025,7 hPa 0,0 l/m 0 min 0 min 0 W/m 12,9 km/h (3 Bft) 97,87 %
29.03.2020 06:14 2,8 C 1,7 C 1,7 C 84 % 1025,7 hPa 0,0 l/m 0 min 0 min 0 W/m 3,2 km/h (1 Bft) 45,95 %
29.03.2020 06:16 2,8 C 1,7 C 1,7 C 84 % 1025,7 hPa 0,0 l/m 0 min 0 min 0 W/m 9,7 km/h (2 Bft) 100,00 %
29.03.2020 06:18 2,8 C 1,7 C 1,7 C 85 % 1025,7 hPa 0,0 l/m 0 min 0 min 0 W/m 0,0 km/h (0 Bft) 100,00 %
29.03.2020 06:20 2,8 C 1,7 C 1,7 C 85 % 1025,7 hPa 0,0 l/m 0 min 0 min 0 W/m 12,9 km/h (3 Bft) 100,00 %
29.03.2020 06:22 2,7 C 1,7 C 1,7 C 85 % 1025,7 hPa 0,0 l/m 0 min 0 min 0 W/m 22,5 km/h (4 Bft) 97,87 %
29.03.2020 06:24 2,7 C 1,7 C 1,7 C 85 % 1025,7 hPa 0,0 l/m 0 min 0 min 0 W/m 16,1 km/h (3 Bft) 100,00 %
29.03.2020 06:26 2,7 C 1,7 C 1,1 C 85 % 1025,7 hPa 0,0 l/m 0 min 0 min 0 W/m 6,4 km/h (2 Bft) 100,00 %
29.03.2020 06:28 2,7 C 1,7 C 1,1 C 85 % 1025,7 hPa 0,0 l/m 0 min 0 min 0 W/m 3,2 km/h (1 Bft) 97,87 %
29.03.2020 06:30 2,7 C 1,7 C 1,1 C 85 % 1025,8 hPa 0,0 l/m 0 min 0 min 0 W/m 9,7 km/h (2 Bft) 100,00 %
29.03.2020 06:32 2,6 C 1,7 C 1,1 C 85 % 1025,8 hPa 0,0 l/m 0 min 0 min 0 W/m 16,1 km/h (3 Bft) 100,00 %
29.03.2020 06:34 2,6 C 1,1 C 1,1 C 85 % 1025,8 hPa 0,0 l/m 0 min 0 min 0 W/m 0,0 km/h (0 Bft) 100,00 %
29.03.2020 06:36 2,6 C 1,1 C 1,1 C 85 % 1025,8 hPa 0,0 l/m 0 min 0 min 0 W/m 12,9 km/h (3 Bft) 100,00 %
29.03.2020 06:38 2,6 C 1,1 C 1,1 C 85 % 1025,8 hPa 0,0 l/m 0 min 0 min 0 W/m 9,7 km/h (2 Bft) 97,87 %
29.03.2020 06:40 2,6 C 1,1 C 1,1 C 85 % 1025,8 hPa 0,0 l/m 0 min 0 min 0 W/m 9,7 km/h (2 Bft) 100,00 %
29.03.2020 06:42 2,5 C 1,1 C 1,1 C 85 % 1025,8 hPa 0,0 l/m 0 min 0 min 0 W/m 16,1 km/h (3 Bft) 100,00 %
29.03.2020 06:44 2,4 C 1,1 C 1,1 C 85 % 1025,8 hPa 0,0 l/m 0 min 0 min 0 W/m 6,4 km/h (2 Bft) 100,00 %
29.03.2020 06:46 2,4 C 1,1 C 1,1 C 86 % 1025,7 hPa 0,0 l/m 0 min 0 min 0 W/m 0,0 km/h (0 Bft) 100,00 %
29.03.2020 06:48 2,4 C 1,1 C 1,1 C 86 % 1025,7 hPa 0,0 l/m 0 min 0 min 0 W/m 12,9 km/h (3 Bft) 97,87 %
29.03.2020 06:50 2,4 C 1,1 C 1,1 C 86 % 1025,7 hPa 0,0 l/m 0 min 0 min 0 W/m 9,7 km/h (2 Bft) 100,00 %
29.03.2020 06:52 2,3 C 1,1 C 1,1 C 86 % 1025,7 hPa 0,0 l/m 0 min 0 min 0 W/m 12,9 km/h (3 Bft) 97,87 %
29.03.2020 06:54 2,3 C 1,1 C 1,1 C 86 % 1025,8 hPa 0,0 l/m 0 min 0 min 0 W/m 6,4 km/h (2 Bft) 97,87 %
29.03.2020 06:56 2,3 C 1,1 C 0,6 C 86 % 1025,8 hPa 0,0 l/m 0 min 0 min 0 W/m 22,5 km/h (4 Bft) 95,65 %
29.03.2020 06:58 2,3 C 1,1 C 0,6 C 86 % 1025,8 hPa 0,0 l/m 0 min 0 min 0 W/m 16,1 km/h (3 Bft) 97,87 %
29.03.2020 07:00 2,2 C 1,1 C 0,6 C 86 % 1025,8 hPa 0,0 l/m 0 min 0 min 0 W/m 12,9 km/h (3 Bft) 95,74 %
29.03.2020 07:02 2,2 C 1,1 C 0,6 C 87 % 1025,8 hPa 0,0 l/m 0 min 0 min 0 W/m 12,9 km/h (3 Bft) 95,74 %
29.03.2020 07:04 2,2 C 1,1 C 0,6 C 87 % 1025,8 hPa 0,0 l/m 0 min 0 min 0 W/m 12,9 km/h (3 Bft) 95,74 %
29.03.2020 07:06 2,2 C 1,1 C 0,6 C 87 % 1025,9 hPa 0,0 l/m 0 min 0 min 0 W/m 6,4 km/h (2 Bft) 97,83 %
29.03.2020 07:08 2,1 C 1,1 C 0,6 C 87 % 1025,9 hPa 0,0 l/m 0 min 0 min 0 W/m 6,4 km/h (2 Bft) 97,87 %
29.03.2020 07:10 2,1 C 1,1 C 0,6 C 87 % 1025,9 hPa 0,0 l/m 0 min 0 min 0 W/m 6,4 km/h (2 Bft) 97,87 %
29.03.2020 07:12 2,1 C 0,6 C 0,6 C 87 % 1025,9 hPa 0,0 l/m 0 min 0 min 0 W/m 6,4 km/h (2 Bft) 95,74 %
29.03.2020 07:14 2,1 C 0,6 C 0,6 C 87 % 1025,9 hPa 0,0 l/m 0 min 0 min 0 W/m 3,2 km/h (1 Bft) 95,74 %
29.03.2020 07:16 2,1 C 0,6 C 0,6 C 87 % 1025,9 hPa 0,0 l/m 0 min 0 min 0 W/m 0,0 km/h (0 Bft) 97,87 %
29.03.2020 07:18 2,0 C 0,6 C 0,6 C 87 % 1025,9 hPa 0,0 l/m 0 min 0 min 1 W/m 9,7 km/h (2 Bft) 95,65 %
29.03.2020 07:20 2,0 C 0,6 C 0,6 C 87 % 1025,9 hPa 0,0 l/m 0 min 0 min 5 W/m 9,7 km/h (2 Bft) 97,87 %
29.03.2020 07:22 1,9 C 1,1 C 0,6 C 87 % 1025,9 hPa 0,0 l/m 0 min 0 min 5 W/m 16,1 km/h (3 Bft) 97,87 %
29.03.2020 07:24 1,9 C 1,1 C 0,6 C 87 % 1025,9 hPa 0,0 l/m 0 min 0 min 6 W/m 16,1 km/h (3 Bft) 97,87 %
29.03.2020 07:26 1,9 C 1,1 C 0,6 C 87 % 1025,9 hPa 0,0 l/m 0 min 0 min 7 W/m 16,1 km/h (3 Bft) 97,87 %
29.03.2020 07:28 1,9 C 1,1 C 0,6 C 88 % 1025,9 hPa 0,0 l/m 0 min 0 min 7 W/m 9,7 km/h (2 Bft) 97,87 %
29.03.2020 07:30 1,9 C 1,1 C 0,6 C 88 % 1025,9 hPa 0,0 l/m 0 min 0 min 9 W/m 9,7 km/h (2 Bft) 100,00 %
29.03.2020 07:32 1,9 C 1,1 C 0,6 C 88 % 1026,0 hPa 0,0 l/m 0 min 0 min 10 W/m 6,4 km/h (2 Bft) 100,00 %
29.03.2020 07:34 1,9 C 1,1 C 0,6 C 88 % 1026,0 hPa 0,0 l/m 0 min 0 min 11 W/m 0,0 km/h (0 Bft) 100,00 %
29.03.2020 07:36 1,9 C 1,1 C 0,6 C 88 % 1026,0 hPa 0,0 l/m 0 min 0 min 12 W/m 0,0 km/h (0 Bft) 100,00 %
29.03.2020 07:38 1,8 C 1,1 C 0,6 C 88 % 1026,0 hPa 0,0 l/m 0 min 0 min 13 W/m 0,0 km/h (0 Bft) 100,00 %
29.03.2020 07:40 1,8 C 1,1 C 0,6 C 88 % 1026,0 hPa 0,0 l/m 0 min 0 min 14 W/m 6,4 km/h (2 Bft) 100,00 %
29.03.2020 07:42 1,8 C 1,1 C 0,6 C 88 % 1026,0 hPa 0,0 l/m 0 min 0 min 14 W/m 6,4 km/h (2 Bft) 100,00 %
29.03.2020 07:44 1,8 C 1,1 C 0,6 C 88 % 1025,9 hPa 0,0 l/m 0 min 0 min 16 W/m 9,7 km/h (2 Bft) 100,00 %
29.03.2020 07:46 1,8 C 1,1 C 0,6 C 88 % 1026,0 hPa 0,0 l/m 0 min 0 min 16 W/m 3,2 km/h (1 Bft) 100,00 %
29.03.2020 07:48 1,8 C 1,1 C 1,1 C 88 % 1026,0 hPa 0,0 l/m 0 min 0 min 18 W/m 9,7 km/h (2 Bft) 100,00 %
29.03.2020 07:50 1,8 C 1,1 C 1,1 C 88 % 1026,0 hPa 0,0 l/m 0 min 0 min 18 W/m 16,1 km/h (3 Bft) 95,74 %
29.03.2020 07:52 1,8 C 1,7 C 1,1 C 88 % 1026,0 hPa 0,0 l/m 0 min 0 min 19 W/m 19,3 km/h (3 Bft) 100,00 %
29.03.2020 07:54 1,9 C 1,7 C 1,1 C 88 % 1026,0 hPa 0,0 l/m 0 min 0 min 21 W/m 9,7 km/h (2 Bft) 100,00 %
29.03.2020 07:56 1,9 C 1,7 C 1,1 C 88 % 1026,1 hPa 0,0 l/m 0 min 0 min 22 W/m 16,1 km/h (3 Bft) 100,00 %
29.03.2020 07:58 1,9 C 2,2 C 1,1 C 88 % 1026,1 hPa 0,0 l/m 0 min 0 min 23 W/m 22,5 km/h (4 Bft) 100,00 %
29.03.2020 08:00 2,0 C 2,2 C 1,7 C 89 % 1026,0 hPa 0,0 l/m 0 min 0 min 24 W/m 19,3 km/h (3 Bft) 100,00 %
29.03.2020 08:02 2,1 C 2,2 C 1,7 C 89 % 1026,1 hPa 0,0 l/m 0 min 0 min 25 W/m 9,7 km/h (2 Bft) 97,87 %
29.03.2020 08:04 2,1 C 2,2 C 1,7 C 89 % 1026,1 hPa 0,0 l/m 0 min 0 min 26 W/m 22,5 km/h (4 Bft) 97,83 %
29.03.2020 08:06 2,1 C 2,2 C 1,7 C 89 % 1026,1 hPa 0,0 l/m 0 min 0 min 26 W/m 9,7 km/h (2 Bft) 97,87 %
29.03.2020 08:08 2,2 C 2,2 C 1,7 C 89 % 1026,1 hPa 0,0 l/m 0 min 0 min 28 W/m 19,3 km/h (3 Bft) 97,87 %
29.03.2020 08:10 2,2 C 2,2 C 1,7 C 89 % 1026,2 hPa 0,0 l/m 0 min 0 min 29 W/m 12,9 km/h (3 Bft) 97,87 %
29.03.2020 08:12 2,3 C 2,2 C 1,7 C 88 % 1026,2 hPa 0,0 l/m 0 min 0 min 32 W/m 29,0 km/h (5 Bft) 97,87 %
29.03.2020 08:14 2,3 C 2,2 C 1,7 C 89 % 1026,2 hPa 0,0 l/m 0 min 0 min 36 W/m 9,7 km/h (2 Bft) 97,87 %
29.03.2020 08:16 2,3 C 2,2 C 1,7 C 88 % 1026,2 hPa 0,0 l/m 0 min 0 min 37 W/m 22,5 km/h (4 Bft) 93,48 %
29.03.2020 08:18 2,4 C 2,8 C 1,7 C 88 % 1026,2 hPa 0,0 l/m 0 min 0 min 37 W/m 22,5 km/h (4 Bft) 93,62 %
29.03.2020 08:20 2,4 C 2,8 C 1,7 C 88 % 1026,2 hPa 0,0 l/m 0 min 0 min 37 W/m 6,4 km/h (2 Bft) 93,62 %
29.03.2020 08:22 2,5 C 2,8 C 1,7 C 88 % 1026,2 hPa 0,0 l/m 0 min 0 min 37 W/m 32,2 km/h (5 Bft) 94,44 %
29.03.2020 08:24 2,6 C 2,8 C 2,2 C 88 % 1026,2 hPa 0,0 l/m 0 min 0 min 42 W/m 22,5 km/h (4 Bft) 91,49 %
29.03.2020 08:26 2,6 C 2,8 C 2,2 C 88 % 1026,3 hPa 0,0 l/m 0 min 0 min 54 W/m 25,7 km/h (4 Bft) 97,87 %
29.03.2020 08:28 2,7 C 3,3 C 2,2 C 88 % 1026,3 hPa 0,0 l/m 0 min 0 min 63 W/m 22,5 km/h (4 Bft) 97,83 %
29.03.2020 08:30 2,7 C 3,3 C 2,8 C 87 % 1026,2 hPa 0,0 l/m 0 min 0 min 63 W/m 0,0 km/h (0 Bft) 97,87 %
29.03.2020 08:32 2,8 C 3,3 C 2,8 C 87 % 1026,3 hPa 0,0 l/m 0 min 0 min 60 W/m 22,5 km/h (4 Bft) 97,14 %
29.03.2020 08:34 2,8 C 3,3 C 2,8 C 87 % 1026,4 hPa 0,0 l/m 0 min 0 min 50 W/m 19,3 km/h (3 Bft) 97,87 %
29.03.2020 08:36 2,9 C 3,3 C 2,8 C 87 % 1026,4 hPa 0,0 l/m 0 min 0 min 44 W/m 25,7 km/h (4 Bft) 97,87 %
29.03.2020 08:38 2,9 C 3,3 C 2,8 C 87 % 1026,4 hPa 0,0 l/m 0 min 0 min 44 W/m 19,3 km/h (3 Bft) 97,87 %
29.03.2020 08:40 3,0 C 3,3 C 2,8 C 87 % 1026,4 hPa 0,0 l/m 0 min 0 min 44 W/m 19,3 km/h (3 Bft) 97,87 %
29.03.2020 08:42 3,1 C 3,3 C 2,8 C 87 % 1026,4 hPa 0,0 l/m 0 min 0 min 49 W/m 25,7 km/h (4 Bft) 53,33 %
29.03.2020 08:44 3,1 C 3,3 C 2,8 C 86 % 1026,4 hPa 0,0 l/m 0 min 0 min 62 W/m 19,3 km/h (3 Bft) 97,87 %
29.03.2020 08:46 3,2 C 3,9 C 2,8 C 86 % 1026,5 hPa 0,0 l/m 0 min 0 min 68 W/m 22,5 km/h (4 Bft) 93,62 %
29.03.2020 08:48 3,3 C 3,9 C 2,8 C 86 % 1026,5 hPa 0,0 l/m 0 min 0 min 70 W/m 32,2 km/h (5 Bft) 97,87 %
29.03.2020 08:50 3,3 C 3,9 C 3,3 C 86 % 1026,5 hPa 0,0 l/m 0 min 0 min 69 W/m 12,9 km/h (3 Bft) 95,74 %
29.03.2020 08:52 3,4 C 3,9 C 3,3 C 85 % 1026,6 hPa 0,0 l/m 0 min 0 min 66 W/m 19,3 km/h (3 Bft) 97,87 %
29.03.2020 08:54 3,5 C 3,9 C 3,3 C 85 % 1026,5 hPa 0,0 l/m 0 min 0 min 63 W/m 16,1 km/h (3 Bft) 97,83 %
29.03.2020 08:56 3,5 C 3,9 C 3,3 C 84 % 1026,6 hPa 0,0 l/m 0 min 0 min 64 W/m 16,1 km/h (3 Bft) 95,74 %
29.03.2020 08:58 3,5 C 3,9 C 3,3 C 84 % 1026,7 hPa 0,0 l/m 0 min 0 min 65 W/m 3,2 km/h (1 Bft) 97,87 %
29.03.2020 09:00 3,6 C 3,9 C 3,3 C 84 % 1026,7 hPa 0,0 l/m 0 min 0 min 66 W/m 16,1 km/h (3 Bft) 95,74 %
29.03.2020 09:02 3,6 C 3,9 C 3,3 C 84 % 1026,7 hPa 0,0 l/m 0 min 0 min 74 W/m 16,1 km/h (3 Bft) 97,87 %
29.03.2020 09:04 3,7 C 3,9 C 3,3 C 83 % 1026,8 hPa 0,0 l/m 0 min 0 min 85 W/m 29,0 km/h (5 Bft) 93,62 %
29.03.2020 09:06 3,7 C 4,4 C 3,3 C 83 % 1026,8 hPa 0,0 l/m 0 min 0 min 99 W/m 22,5 km/h (4 Bft) 95,65 %
29.03.2020 09:08 3,8 C 4,4 C 3,9 C 83 % 1026,8 hPa 0,0 l/m 0 min 0 min 118 W/m 3,2 km/h (1 Bft) 95,74 %
29.03.2020 09:10 3,9 C 5,0 C 3,9 C 83 % 1026,7 hPa 0,0 l/m 0 min 0 min 130 W/m 0,0 km/h (0 Bft) 95,74 %
29.03.2020 09:12 3,9 C 5,0 C 4,4 C 83 % 1026,9 hPa 0,0 l/m 0 min 0 min 138 W/m 9,7 km/h (2 Bft) 95,74 %
29.03.2020 09:14 4,1 C 5,6 C 4,4 C 83 % 1026,9 hPa 0,0 l/m 0 min 0 min 142 W/m 9,7 km/h (2 Bft) 95,74 %
29.03.2020 09:16 4,2 C 5,6 C 4,4 C 83 % 1026,9 hPa 0,0 l/m 0 min 0 min 142 W/m 16,1 km/h (3 Bft) 95,65 %
29.03.2020 09:18 4,3 C 5,6 C 4,4 C 82 % 1026,9 hPa 0,0 l/m 0 min 0 min 151 W/m 12,9 km/h (3 Bft) 93,62 %
29.03.2020 09:20 4,3 C 5,6 C 5,0 C 81 % 1026,9 hPa 0,0 l/m 2 min 0 min 157 W/m 12,9 km/h (3 Bft) 95,74 %
29.03.2020 09:22 4,4 C 6,1 C 5,0 C 81 % 1026,9 hPa 0,0 l/m 2 min 0 min 158 W/m 0,0 km/h (0 Bft) 95,74 %
29.03.2020 09:24 4,5 C 6,1 C 5,0 C 81 % 1026,8 hPa 0,0 l/m 0 min 0 min 159 W/m 19,3 km/h (3 Bft) 95,74 %
29.03.2020 09:26 4,6 C 5,6 C 5,0 C 80 % 1026,9 hPa 0,0 l/m 2 min 0 min 169 W/m 12,9 km/h (3 Bft) 91,49 %
29.03.2020 09:28 4,7 C 5,6 C 5,0 C 79 % 1026,9 hPa 0,0 l/m 0 min 0 min 144 W/m 3,2 km/h (1 Bft) 95,65 %
29.03.2020 09:30 4,7 C 5,6 C 5,0 C 79 % 1026,9 hPa 0,0 l/m 0 min 0 min 139 W/m 6,4 km/h (2 Bft) 93,62 %
29.03.2020 09:32 4,7 C 5,6 C 4,4 C 78 % 1027,0 hPa 0,0 l/m 0 min 0 min 132 W/m 3,2 km/h (1 Bft) 95,74 %
29.03.2020 09:34 4,8 C 6,1 C 5,0 C 78 % 1027,0 hPa 0,0 l/m 0 min 0 min 135 W/m 0,0 km/h (0 Bft) 95,74 %
29.03.2020 09:36 4,8 C 6,1 C 5,0 C 78 % 1027,0 hPa 0,0 l/m 0 min 0 min 168 W/m 12,9 km/h (3 Bft) 95,74 %
29.03.2020 09:38 4,8 C 5,6 C 5,0 C 77 % 1027,0 hPa 0,0 l/m 2 min 0 min 183 W/m 51,5 km/h (7 Bft) 95,74 %
29.03.2020 09:40 4,9 C 6,1 C 5,0 C 77 % 1027,0 hPa 0,0 l/m 2 min 0 min 200 W/m 19,3 km/h (3 Bft) 95,74 %
29.03.2020 09:42 4,9 C 6,1 C 5,0 C 77 % 1027,0 hPa 0,0 l/m 0 min 0 min 170 W/m 25,7 km/h (4 Bft) 95,65 %
29.03.2020 09:44 4,9 C 6,1 C 5,0 C 77 % 1027,1 hPa 0,0 l/m 0 min 0 min 163 W/m 22,5 km/h (4 Bft) 97,87 %
29.03.2020 09:46 5,0 C 5,6 C 5,0 C 76 % 1027,1 hPa 0,0 l/m 0 min 0 min 144 W/m 12,9 km/h (3 Bft) 93,62 %
29.03.2020 09:48 5,0 C 5,6 C 5,0 C 76 % 1027,1 hPa 0,0 l/m 0 min 0 min 132 W/m 29,0 km/h (5 Bft) 91,49 %
29.03.2020 09:50 5,0 C 5,0 C 4,4 C 76 % 1027,2 hPa 0,0 l/m 0 min 0 min 132 W/m 29,0 km/h (5 Bft) 97,87 %
29.03.2020 09:52 5,0 C 5,0 C 4,4 C 75 % 1027,2 hPa 0,0 l/m 0 min 0 min 141 W/m 22,5 km/h (4 Bft) 95,65 %
29.03.2020 09:54 5,0 C 5,6 C 5,0 C 75 % 1027,2 hPa 0,0 l/m 0 min 0 min 157 W/m 12,9 km/h (3 Bft) 97,87 %
29.03.2020 09:56 5,0 C 5,6 C 5,0 C 76 % 1027,2 hPa 0,0 l/m 0 min 0 min 177 W/m 3,2 km/h (1 Bft) 97,87 %
29.03.2020 09:58 5,1 C 5,6 C 5,0 C 75 % 1027,2 hPa 0,0 l/m 0 min 0 min 166 W/m 19,3 km/h (3 Bft) 97,87 %
29.03.2020 10:00 5,1 C 5,6 C 5,0 C 75 % 1027,1 hPa 0,0 l/m 0 min 0 min 134 W/m 0,0 km/h (0 Bft) 100,00 %
29.03.2020 10:02 5,1 C 6,1 C 5,0 C 75 % 1027,2 hPa 0,0 l/m 0 min 0 min 150 W/m 16,1 km/h (3 Bft) 100,00 %
29.03.2020 10:04 5,1 C 6,7 C 6,7 C 75 % 1027,2 hPa 0,0 l/m 0 min 0 min 158 W/m 16,1 km/h (3 Bft) 100,00 %
29.03.2020 10:06 5,2 C 6,1 C 6,1 C 74 % 1027,2 hPa 0,0 l/m 0 min 0 min 157 W/m 32,2 km/h (5 Bft) 97,87 %
29.03.2020 10:08 5,2 C 5,6 C 5,6 C 74 % 1027,2 hPa 0,0 l/m 0 min 0 min 129 W/m 29,0 km/h (5 Bft) 97,87 %
29.03.2020 10:10 5,2 C 5,6 C 5,0 C 74 % 1027,3 hPa 0,0 l/m 0 min 0 min 107 W/m 25,7 km/h (4 Bft) 100,00 %
29.03.2020 10:12 5,2 C 5,0 C 5,0 C 73 % 1027,4 hPa 0,0 l/m 0 min 0 min 105 W/m 32,2 km/h (5 Bft) 100,00 %
29.03.2020 10:14 5,2 C 5,0 C 4,4 C 73 % 1027,3 hPa 0,0 l/m 0 min 0 min 104 W/m 25,7 km/h (4 Bft) 100,00 %
29.03.2020 10:16 5,2 C 5,6 C 5,0 C 73 % 1027,3 hPa 0,0 l/m 0 min 0 min 166 W/m 12,9 km/h (3 Bft) 100,00 %
29.03.2020 10:18 5,2 C 6,1 C 5,6 C 73 % 1027,3 hPa 0,0 l/m 0 min 0 min 186 W/m 12,9 km/h (3 Bft) 100,00 %
29.03.2020 10:20 5,3 C 6,7 C 6,1 C 73 % 1027,3 hPa 0,0 l/m 0 min 0 min 198 W/m 3,2 km/h (1 Bft) 100,00 %
29.03.2020 10:22 5,3 C 7,8 C 7,8 C 73 % 1027,4 hPa 0,0 l/m 2 min 0 min 243 W/m 29,0 km/h (5 Bft) 100,00 %
29.03.2020 10:24 5,4 C 7,2 C 6,7 C 72 % 1027,4 hPa 0,0 l/m 0 min 0 min 191 W/m 22,5 km/h (4 Bft) 100,00 %
29.03.2020 10:26 5,5 C 6,7 C 6,7 C 72 % 1027,3 hPa 0,0 l/m 0 min 0 min 193 W/m 0,0 km/h (0 Bft) 100,00 %
29.03.2020 10:28 5,5 C 6,1 C 6,1 C 70 % 1027,4 hPa 0,0 l/m 0 min 0 min 192 W/m 35,4 km/h (5 Bft) 97,87 %
29.03.2020 10:30 5,6 C 7,2 C 7,2 C 70 % 1027,4 hPa 0,0 l/m 2 min 0 min 248 W/m 35,4 km/h (5 Bft) 95,74 %
29.03.2020 10:32 5,6 C 7,8 C 7,2 C 69 % 1027,3 hPa 0,0 l/m 2 min 0 min 251 W/m 29,0 km/h (5 Bft) 97,87 %
29.03.2020 10:34 5,7 C 7,2 C 6,7 C 69 % 1027,4 hPa 0,0 l/m 0 min 0 min 199 W/m 19,3 km/h (3 Bft) 97,87 %
29.03.2020 10:36 5,7 C 6,1 C 5,6 C 68 % 1027,4 hPa 0,0 l/m 0 min 0 min 156 W/m 22,5 km/h (4 Bft) 97,87 %
29.03.2020 10:38 5,7 C 6,1 C 5,6 C 68 % 1027,4 hPa 0,0 l/m 0 min 0 min 149 W/m 16,1 km/h (3 Bft) 95,65 %
29.03.2020 10:40 5,6 C 5,6 C 5,6 C 68 % 1027,4 hPa 0,0 l/m 0 min 0 min 160 W/m 9,7 km/h (2 Bft) 97,87 %
29.03.2020 10:42 5,6 C 6,1 C 5,6 C 68 % 1027,4 hPa 0,0 l/m 0 min 0 min 186 W/m 19,3 km/h (3 Bft) 97,87 %
29.03.2020 10:44 5,7 C 6,1 C 5,6 C 68 % 1027,5 hPa 0,0 l/m 0 min 0 min 213 W/m 16,1 km/h (3 Bft) 97,87 %
29.03.2020 10:46 5,7 C 6,7 C 6,7 C 68 % 1027,4 hPa 0,0 l/m 2 min 0 min 261 W/m 16,1 km/h (3 Bft) 93,62 %
29.03.2020 10:48 5,8 C 6,7 C 6,1 C 68 % 1027,4 hPa 0,0 l/m 0 min 0 min 205 W/m 16,1 km/h (3 Bft) 97,87 %
29.03.2020 10:50 5,8 C 6,7 C 6,1 C 68 % 1027,5 hPa 0,0 l/m 0 min 0 min 174 W/m 29,0 km/h (5 Bft) 97,83 %
29.03.2020 10:52 5,8 C 6,1 C 6,1 C 68 % 1027,6 hPa 0,0 l/m 0 min 0 min 126 W/m 22,5 km/h (4 Bft) 97,87 %
29.03.2020 10:54 5,8 C 6,1 C 5,6 C 68 % 1027,5 hPa 0,0 l/m 0 min 0 min 134 W/m 29,0 km/h (5 Bft) 97,87 %
29.03.2020 10:56 5,8 C 5,6 C 5,0 C 68 % 1027,6 hPa 0,0 l/m 0 min 0 min 111 W/m 41,8 km/h (6 Bft) 95,74 %
29.03.2020 10:58 5,7 C 5,0 C 5,0 C 68 % 1027,6 hPa 0,0 l/m 0 min 0 min 95 W/m 29,0 km/h (5 Bft) 95,74 %
29.03.2020 11:00 5,7 C 5,0 C 5,0 C 68 % 1027,6 hPa 0,0 l/m 0 min 0 min 94 W/m 9,7 km/h (2 Bft) 100,00 %
29.03.2020 11:02 5,7 C 5,0 C 5,0 C 68 % 1027,6 hPa 0,0 l/m 0 min 0 min 87 W/m 25,7 km/h (4 Bft) 86,96 %
29.03.2020 11:04 5,6 C 5,0 C 4,4 C 69 % 1027,6 hPa 0,0 l/m 0 min 0 min 79 W/m 12,9 km/h (3 Bft) 61,36 %
29.03.2020 11:06 5,6 C 5,0 C 4,4 C 69 % 1027,7 hPa 0,0 l/m 0 min 0 min 97 W/m 6,4 km/h (2 Bft) 100,00 %
29.03.2020 11:08 5,5 C 5,0 C 4,4 C 70 % 1027,7 hPa 0,0 l/m 0 min 0 min 97 W/m 16,1 km/h (3 Bft) 97,87 %
29.03.2020 11:10 5,4 C 5,0 C 4,4 C 70 % 1027,6 hPa 0,0 l/m 0 min 0 min 96 W/m 32,2 km/h (5 Bft) 97,87 %
29.03.2020 11:12 5,3 C 4,4 C 4,4 C 70 % 1027,7 hPa 0,0 l/m 0 min 0 min 98 W/m 19,3 km/h (3 Bft) 97,87 %
29.03.2020 11:14 5,3 C 4,4 C 4,4 C 71 % 1027,7 hPa 0,0 l/m 0 min 0 min 118 W/m 29,0 km/h (5 Bft) 97,83 %
29.03.2020 11:16 5,3 C 5,0 C 4,4 C 72 % 1027,8 hPa 0,0 l/m 0 min 0 min 132 W/m 3,2 km/h (1 Bft) 100,00 %
29.03.2020 11:18 5,2 C 5,0 C 4,4 C 72 % 1027,8 hPa 0,0 l/m 0 min 0 min 136 W/m 41,8 km/h (6 Bft) 100,00 %
29.03.2020 11:20 5,2 C 5,0 C 5,0 C 72 % 1027,8 hPa 0,0 l/m 0 min 0 min 151 W/m 22,5 km/h (4 Bft) 100,00 %
29.03.2020 11:22 5,2 C 5,6 C 5,0 C 73 % 1027,9 hPa 0,0 l/m 0 min 0 min 203 W/m 29,0 km/h (5 Bft) 100,00 %
29.03.2020 11:24 5,2 C 5,6 C 5,6 C 72 % 1027,9 hPa 0,0 l/m 0 min 0 min 255 W/m 32,2 km/h (5 Bft) 100,00 %
29.03.2020 11:26 5,2 C 5,6 C 5,6 C 72 % 1028,0 hPa 0,0 l/m 0 min 0 min 229 W/m 29,0 km/h (5 Bft) 97,87 %
29.03.2020 11:28 5,2 C 5,6 C 5,0 C 73 % 1028,0 hPa 0,0 l/m 0 min 0 min 175 W/m 19,3 km/h (3 Bft) 100,00 %
29.03.2020 11:30 5,2 C 5,6 C 5,0 C 73 % 1028,0 hPa 0,0 l/m 0 min 0 min 140 W/m 25,7 km/h (4 Bft) 100,00 %
29.03.2020 11:32 5,2 C 5,0 C 5,0 C 73 % 1028,1 hPa 0,0 l/m 0 min 0 min 139 W/m 29,0 km/h (5 Bft) 100,00 %
29.03.2020 11:34 5,2 C 5,0 C 5,0 C 72 % 1028,0 hPa 0,0 l/m 0 min 0 min 145 W/m 32,2 km/h (5 Bft) 100,00 %
29.03.2020 11:36 5,2 C 5,0 C 5,0 C 72 % 1028,1 hPa 0,0 l/m 0 min 0 min 148 W/m 32,2 km/h (5 Bft) 97,83 %
29.03.2020 11:38 5,1 C 5,0 C 5,0 C 72 % 1028,2 hPa 0,0 l/m 0 min 0 min 184 W/m 25,7 km/h (4 Bft) 100,00 %
29.03.2020 11:40 5,1 C 5,0 C 5,0 C 73 % 1028,0 hPa 0,0 l/m 0 min 0 min 196 W/m 19,3 km/h (3 Bft) 100,00 %
29.03.2020 11:42 5,1 C 5,6 C 5,0 C 73 % 1028,0 hPa 0,0 l/m 0 min 0 min 203 W/m 32,2 km/h (5 Bft) 100,00 %
29.03.2020 11:44 5,2 C 5,6 C 5,0 C 73 % 1028,0 hPa 0,0 l/m 0 min 0 min 206 W/m 22,5 km/h (4 Bft) 100,00 %
29.03.2020 11:46 5,2 C 5,6 C 5,6 C 73 % 1028,0 hPa 0,0 l/m 0 min 0 min 204 W/m 22,5 km/h (4 Bft) 100,00 %
29.03.2020 11:48 5,2 C 5,6 C 5,6 C 73 % 1028,0 hPa 0,0 l/m 0 min 0 min 212 W/m 22,5 km/h (4 Bft) 100,00 %
29.03.2020 11:50 5,2 C 5,6 C 5,6 C 73 % 1028,0 hPa 0,0 l/m 0 min 0 min 179 W/m 19,3 km/h (3 Bft) 100,00 %
29.03.2020 11:52 5,3 C 5,6 C 5,0 C 73 % 1028,0 hPa 0,0 l/m 0 min 0 min 152 W/m 22,5 km/h (4 Bft) 100,00 %
29.03.2020 11:54 5,3 C 5,0 C 5,0 C 73 % 1028,1 hPa 0,0 l/m 0 min 0 min 117 W/m 25,7 km/h (4 Bft) 100,00 %
29.03.2020 11:56 5,2 C 5,0 C 5,0 C 73 % 1028,0 hPa 0,0 l/m 0 min 0 min 92 W/m 25,7 km/h (4 Bft) 95,74 %
29.03.2020 11:58 5,2 C 4,4 C 4,4 C 73 % 1028,1 hPa 0,0 l/m 0 min 0 min 76 W/m 19,3 km/h (3 Bft) 95,74 %
29.03.2020 12:00 5,2 C 4,4 C 4,4 C 73 % 1028,0 hPa 0,0 l/m 0 min 0 min 94 W/m 29,0 km/h (5 Bft) 97,83 %
29.03.2020 12:02 5,1 C 4,4 C 4,4 C 74 % 1028,1 hPa 0,0 l/m 0 min 0 min 119 W/m 16,1 km/h (3 Bft) 95,74 %
29.03.2020 12:04 5,1 C 4,4 C 4,4 C 75 % 1028,2 hPa 0,0 l/m 0 min 0 min 108 W/m 22,5 km/h (4 Bft) 95,74 %
29.03.2020 12:08 5,0 C 4,4 C 4,4 C 76 % 1028,2 hPa 0,0 l/m 0 min 0 min 104 W/m 32,2 km/h (5 Bft) 96,81 %
29.03.2020 12:10 4,9 C 4,4 C 4,4 C 77 % 1028,2 hPa 0,0 l/m 0 min 0 min 159 W/m 25,7 km/h (4 Bft) 97,87 %
29.03.2020 12:12 4,9 C 4,4 C 4,4 C 77 % 1028,3 hPa 0,0 l/m 0 min 0 min 207 W/m 22,5 km/h (4 Bft) 95,65 %
29.03.2020 12:14 4,8 C 5,0 C 4,4 C 77 % 1028,4 hPa 0,0 l/m 0 min 0 min 203 W/m 22,5 km/h (4 Bft) 97,87 %
29.03.2020 12:16 4,8 C 5,0 C 5,0 C 78 % 1028,3 hPa 0,0 l/m 0 min 0 min 196 W/m 25,7 km/h (4 Bft) 97,87 %
29.03.2020 12:18 4,8 C 5,6 C 5,0 C 78 % 1028,4 hPa 0,0 l/m 0 min 0 min 231 W/m 9,7 km/h (2 Bft) 95,74 %
29.03.2020 12:20 4,8 C 6,1 C 5,6 C 79 % 1028,4 hPa 0,0 l/m 2 min 0 min 316 W/m 19,3 km/h (3 Bft) 95,74 %
29.03.2020 12:22 4,9 C 6,1 C 5,6 C 79 % 1028,4 hPa 0,0 l/m 0 min 0 min 290 W/m 22,5 km/h (4 Bft) 95,74 %
29.03.2020 12:24 4,9 C 5,6 C 5,6 C 78 % 1028,4 hPa 0,0 l/m 0 min 0 min 314 W/m 29,0 km/h (5 Bft) 93,48 %
29.03.2020 12:26 4,9 C 6,1 C 5,6 C 78 % 1028,4 hPa 0,0 l/m 2 min 0 min 342 W/m 22,5 km/h (4 Bft) 95,74 %
29.03.2020 12:28 5,0 C 6,1 C 6,1 C 78 % 1028,4 hPa 0,0 l/m 2 min 0 min 324 W/m 25,7 km/h (4 Bft) 95,74 %
29.03.2020 12:30 5,1 C 6,1 C 6,1 C 78 % 1028,4 hPa 0,0 l/m 0 min 0 min 262 W/m 29,0 km/h (5 Bft) 96,55 %
29.03.2020 12:32 5,1 C 5,6 C 5,6 C 78 % 1028,4 hPa 0,0 l/m 0 min 0 min 210 W/m 32,2 km/h (5 Bft) 95,74 %
29.03.2020 12:34 5,1 C 5,6 C 5,0 C 78 % 1028,5 hPa 0,0 l/m 0 min 0 min 191 W/m 22,5 km/h (4 Bft) 93,62 %
29.03.2020 12:36 5,1 C 5,0 C 5,0 C 78 % 1028,5 hPa 0,0 l/m 0 min 0 min 208 W/m 32,2 km/h (5 Bft) 91,49 %
29.03.2020 12:38 5,0 C 5,0 C 4,4 C 78 % 1028,5 hPa 0,0 l/m 0 min 2 min 181 W/m 9,7 km/h (2 Bft) 95,74 %
29.03.2020 12:40 5,0 C 5,0 C 4,4 C 78 % 1028,5 hPa 0,0 l/m 0 min 0 min 174 W/m 12,9 km/h (3 Bft) 97,87 %
29.03.2020 12:42 4,9 C 4,4 C 4,4 C 78 % 1028,6 hPa 0,0 l/m 0 min 0 min 188 W/m 29,0 km/h (5 Bft) 95,65 %
29.03.2020 12:44 4,9 C 5,0 C 4,4 C 79 % 1028,5 hPa 0,0 l/m 0 min 2 min 246 W/m 19,3 km/h (3 Bft) 95,74 %
29.03.2020 12:46 4,8 C 5,0 C 4,4 C 79 % 1028,6 hPa 0,0 l/m 0 min 2 min 230 W/m 29,0 km/h (5 Bft) 93,62 %
29.03.2020 12:48 4,8 C 5,0 C 5,0 C 80 % 1028,6 hPa 0,0 l/m 0 min 0 min 264 W/m 19,3 km/h (3 Bft) 95,74 %
29.03.2020 12:50 4,8 C 5,0 C 5,0 C 80 % 1028,6 hPa 0,0 l/m 0 min 2 min 232 W/m 16,1 km/h (3 Bft) 93,62 %
29.03.2020 12:52 4,8 C 5,0 C 5,0 C 80 % 1028,6 hPa 0,0 l/m 0 min 2 min 213 W/m 22,5 km/h (4 Bft) 95,74 %
29.03.2020 12:54 4,8 C 5,0 C 4,4 C 80 % 1028,6 hPa 0,0 l/m 0 min 0 min 211 W/m 19,3 km/h (3 Bft) 95,65 %
29.03.2020 12:56 4,8 C 5,0 C 4,4 C 80 % 1028,6 hPa 0,0 l/m 0 min 0 min 171 W/m 16,1 km/h (3 Bft) 97,87 %
29.03.2020 12:58 4,8 C 4,4 C 4,4 C 80 % 1028,6 hPa 0,0 l/m 0 min 0 min 183 W/m 35,4 km/h (5 Bft) 95,74 %
29.03.2020 13:00 4,7 C 4,4 C 4,4 C 81 % 1028,8 hPa 0,0 l/m 0 min 2 min 173 W/m 22,5 km/h (4 Bft) 97,87 %
29.03.2020 13:02 4,7 C 4,4 C 4,4 C 81 % 1028,5 hPa 0,0 l/m 0 min 2 min 227 W/m 19,3 km/h (3 Bft) 97,87 %
29.03.2020 13:04 4,7 C 4,4 C 4,4 C 81 % 1028,8 hPa 0,0 l/m 0 min 2 min 190 W/m 32,2 km/h (5 Bft) 97,87 %
29.03.2020 13:06 4,6 C 4,4 C 4,4 C 81 % 1028,7 hPa 0,0 l/m 0 min 2 min 204 W/m 35,4 km/h (5 Bft) 95,65 %
29.03.2020 13:08 4,6 C 4,4 C 3,9 C 82 % 1028,8 hPa 0,0 l/m 0 min 2 min 174 W/m 25,7 km/h (4 Bft) 95,74 %
29.03.2020 13:10 4,6 C 4,4 C 3,9 C 82 % 1028,7 hPa 0,0 l/m 0 min 2 min 148 W/m 9,7 km/h (2 Bft) 100,00 %
29.03.2020 13:12 4,6 C 4,4 C 3,9 C 82 % 1028,9 hPa 0,0 l/m 0 min 2 min 187 W/m 12,9 km/h (3 Bft) 100,00 %
29.03.2020 13:14 4,6 C 4,4 C 3,9 C 83 % 1028,8 hPa 0,0 l/m 0 min 2 min 214 W/m 22,5 km/h (4 Bft) 97,87 %
29.03.2020 13:16 4,6 C 4,4 C 3,9 C 83 % 1028,8 hPa 0,0 l/m 0 min 2 min 174 W/m 16,1 km/h (3 Bft) 95,74 %
29.03.2020 13:18 4,5 C 4,4 C 3,9 C 84 % 1028,8 hPa 0,0 l/m 0 min 2 min 150 W/m 19,3 km/h (3 Bft) 95,65 %
29.03.2020 13:20 4,4 C 3,9 C 3,3 C 84 % 1028,9 hPa 0,0 l/m 0 min 0 min 161 W/m 22,5 km/h (4 Bft) 97,87 %
29.03.2020 13:22 4,4 C 4,4 C 3,9 C 84 % 1028,8 hPa 0,0 l/m 0 min 0 min 171 W/m 12,9 km/h (3 Bft) 97,87 %
29.03.2020 13:24 4,3 C 3,9 C 3,9 C 84 % 1028,9 hPa 0,0 l/m 0 min 0 min 189 W/m 16,1 km/h (3 Bft) 97,87 %
29.03.2020 13:26 4,3 C 4,4 C 3,9 C 84 % 1028,9 hPa 0,0 l/m 0 min 2 min 197 W/m 9,7 km/h (2 Bft) 97,87 %
29.03.2020 13:28 4,3 C 3,9 C 3,9 C 84 % 1028,9 hPa 0,0 l/m 0 min 2 min 183 W/m 19,3 km/h (3 Bft) 97,87 %
29.03.2020 13:30 4,3 C 3,9 C 3,3 C 85 % 1029,0 hPa 0,0 l/m 0 min 2 min 157 W/m 22,5 km/h (4 Bft) 97,83 %
29.03.2020 13:32 4,3 C 3,9 C 3,3 C 84 % 1028,9 hPa 0,0 l/m 0 min 2 min 174 W/m 19,3 km/h (3 Bft) 56,52 %
29.03.2020 13:34 4,2 C 3,9 C 3,3 C 84 % 1029,0 hPa 0,0 l/m 0 min 2 min 149 W/m 32,2 km/h (5 Bft) 97,87 %
29.03.2020 13:36 4,1 C 3,3 C 2,8 C 85 % 1028,8 hPa 0,0 l/m 0 min 2 min 155 W/m 29,0 km/h (5 Bft) 95,74 %
29.03.2020 13:38 4,0 C 3,3 C 3,3 C 85 % 1029,0 hPa 0,0 l/m 0 min 2 min 181 W/m 32,2 km/h (5 Bft) 97,87 %
29.03.2020 13:40 4,0 C 3,3 C 3,3 C 85 % 1029,0 hPa 0,0 l/m 0 min 0 min 218 W/m 25,7 km/h (4 Bft) 97,87 %
29.03.2020 13:42 3,9 C 3,3 C 3,3 C 85 % 1029,0 hPa 0,0 l/m 0 min 2 min 213 W/m 22,5 km/h (4 Bft) 95,65 %
29.03.2020 13:44 3,9 C 3,9 C 3,3 C 85 % 1029,1 hPa 0,0 l/m 0 min 2 min 234 W/m 29,0 km/h (5 Bft) 95,74 %
29.03.2020 13:46 3,9 C 3,9 C 3,3 C 86 % 1029,1 hPa 0,0 l/m 0 min 2 min 206 W/m 16,1 km/h (3 Bft) 97,87 %
29.03.2020 13:48 3,9 C 3,3 C 3,3 C 86 % 1029,1 hPa 0,0 l/m 0 min 0 min 162 W/m 19,3 km/h (3 Bft) 97,87 %
29.03.2020 13:50 3,9 C 3,3 C 3,3 C 86 % 1029,1 hPa 0,0 l/m 0 min 0 min 138 W/m 29,0 km/h (5 Bft) 97,87 %
29.03.2020 13:52 3,8 C 3,3 C 3,3 C 86 % 1029,2 hPa 0,0 l/m 0 min 0 min 145 W/m 22,5 km/h (4 Bft) 95,65 %
29.03.2020 13:54 3,8 C 3,3 C 3,3 C 86 % 1029,3 hPa 0,0 l/m 0 min 0 min 142 W/m 22,5 km/h (4 Bft) 93,62 %
29.03.2020 13:56 3,7 C 2,8 C 2,8 C 86 % 1029,3 hPa 0,0 l/m 0 min 0 min 135 W/m 25,7 km/h (4 Bft) 93,62 %
29.03.2020 13:58 3,7 C 2,8 C 2,8 C 86 % 1029,2 hPa 0,0 l/m 0 min 0 min 130 W/m 22,5 km/h (4 Bft) 97,87 %
29.03.2020 14:00 3,6 C 3,3 C 2,8 C 86 % 1029,3 hPa 0,0 l/m 0 min 0 min 123 W/m 16,1 km/h (3 Bft) 97,87 %
29.03.2020 14:02 3,6 C 3,3 C 2,8 C 86 % 1029,3 hPa 0,0 l/m 0 min 0 min 113 W/m 25,7 km/h (4 Bft) 95,74 %
29.03.2020 14:04 3,6 C 3,3 C 2,8 C 87 % 1029,3 hPa 0,0 l/m 0 min 0 min 101 W/m 32,2 km/h (5 Bft) 97,83 %
29.03.2020 14:06 3,6 C 2,8 C 2,8 C 87 % 1029,2 hPa 0,0 l/m 0 min 0 min 65 W/m 19,3 km/h (3 Bft) 97,87 %
29.03.2020 14:08 3,5 C 2,8 C 2,8 C 87 % 1029,3 hPa 0,0 l/m 0 min 0 min 71 W/m 25,7 km/h (4 Bft) 97,87 %
29.03.2020 14:10 3,4 C 2,8 C 2,8 C 87 % 1029,2 hPa 0,0 l/m 0 min 2 min 82 W/m 22,5 km/h (4 Bft) 100,00 %
29.03.2020 14:12 3,4 C 2,8 C 2,8 C 86 % 1029,3 hPa 0,0 l/m 0 min 0 min 72 W/m 22,5 km/h (4 Bft) 100,00 %
29.03.2020 14:14 3,4 C 2,8 C 2,8 C 86 % 1029,3 hPa 0,0 l/m 0 min 2 min 72 W/m 29,0 km/h (5 Bft) 97,83 %
29.03.2020 14:16 3,4 C 2,8 C 2,8 C 86 % 1029,3 hPa 0,0 l/m 0 min 2 min 72 W/m 16,1 km/h (3 Bft) 100,00 %
29.03.2020 14:18 3,3 C 2,8 C 2,2 C 86 % 1029,3 hPa 0,0 l/m 0 min 2 min 74 W/m 45,1 km/h (6 Bft) 100,00 %
29.03.2020 14:20 3,3 C 2,8 C 2,2 C 86 % 1029,3 hPa 0,0 l/m 0 min 2 min 67 W/m 19,3 km/h (3 Bft) 100,00 %
29.03.2020 14:22 3,3 C 2,8 C 2,2 C 86 % 1029,2 hPa 0,0 l/m 0 min 2 min 73 W/m 22,5 km/h (4 Bft) 100,00 %
29.03.2020 14:24 3,3 C 2,8 C 2,2 C 86 % 1029,3 hPa 0,0 l/m 0 min 2 min 85 W/m 35,4 km/h (5 Bft) 100,00 %
29.03.2020 14:26 3,3 C 2,8 C 2,2 C 87 % 1029,2 hPa 0,0 l/m 0 min 2 min 95 W/m 16,1 km/h (3 Bft) 100,00 %
29.03.2020 14:28 3,3 C 2,8 C 2,2 C 87 % 1029,2 hPa 0,0 l/m 0 min 2 min 92 W/m 12,9 km/h (3 Bft) 100,00 %
29.03.2020 14:30 3,3 C 2,2 C 2,2 C 87 % 1029,3 hPa 0,0 l/m 0 min 2 min 86 W/m 41,8 km/h (6 Bft) 100,00 %
29.03.2020 14:32 3,3 C 2,2 C 2,2 C 87 % 1029,3 hPa 0,0 l/m 0 min 2 min 83 W/m 29,0 km/h (5 Bft) 100,00 %
29.03.2020 14:34 3,2 C 2,2 C 2,2 C 87 % 1029,2 hPa 0,0 l/m 0 min 2 min 81 W/m 19,3 km/h (3 Bft) 100,00 %
29.03.2020 14:36 3,2 C 2,2 C 2,2 C 87 % 1029,3 hPa 0,0 l/m 0 min 2 min 76 W/m 19,3 km/h (3 Bft) 57,45 %
29.03.2020 14:38 3,2 C 2,2 C 2,2 C 87 % 1029,4 hPa 0,0 l/m 0 min 2 min 69 W/m 19,3 km/h (3 Bft) 97,83 %
29.03.2020 14:40 3,2 C 2,2 C 2,2 C 88 % 1029,3 hPa 0,0 l/m 0 min 2 min 68 W/m 25,7 km/h (4 Bft) 100,00 %
29.03.2020 14:42 3,2 C 2,8 C 2,2 C 88 % 1029,4 hPa 0,0 l/m 0 min 2 min 85 W/m 19,3 km/h (3 Bft) 100,00 %
29.03.2020 14:44 3,2 C 2,8 C 2,2 C 88 % 1029,4 hPa 0,0 l/m 0 min 2 min 79 W/m 9,7 km/h (2 Bft) 100,00 %
29.03.2020 14:46 3,2 C 2,8 C 2,2 C 88 % 1029,4 hPa 0,0 l/m 0 min 2 min 117 W/m 16,1 km/h (3 Bft) 100,00 %
29.03.2020 14:48 3,2 C 2,8 C 2,2 C 89 % 1029,4 hPa 0,0 l/m 0 min 0 min 124 W/m 22,5 km/h (4 Bft) 100,00 %
29.03.2020 14:50 3,2 C 3,3 C 2,8 C 89 % 1029,4 hPa 0,0 l/m 0 min 0 min 155 W/m 9,7 km/h (2 Bft) 100,00 %
29.03.2020 14:52 3,3 C 3,3 C 2,8 C 89 % 1029,3 hPa 0,0 l/m 0 min 0 min 191 W/m 19,3 km/h (3 Bft) 100,00 %
29.03.2020 14:54 3,3 C 3,3 C 2,8 C 89 % 1029,4 hPa 0,0 l/m 0 min 0 min 174 W/m 35,4 km/h (5 Bft) 100,00 %
29.03.2020 14:56 3,3 C 3,3 C 2,8 C 89 % 1029,5 hPa 0,0 l/m 0 min 0 min 134 W/m 16,1 km/h (3 Bft) 97,87 %
29.03.2020 14:58 3,4 C 3,3 C 2,8 C 89 % 1029,4 hPa 0,0 l/m 0 min 0 min 138 W/m 12,9 km/h (3 Bft) 97,87 %
29.03.2020 15:00 3,4 C 3,3 C 2,8 C 89 % 1029,4 hPa 0,0 l/m 0 min 2 min 139 W/m 22,5 km/h (4 Bft) 100,00 %
29.03.2020 15:02 3,4 C 3,3 C 2,8 C 89 % 1029,4 hPa 0,0 l/m 0 min 0 min 145 W/m 22,5 km/h (4 Bft) 97,83 %
29.03.2020 15:04 3,4 C 3,3 C 2,8 C 89 % 1029,4 hPa 0,0 l/m 0 min 0 min 165 W/m 35,4 km/h (5 Bft) 97,87 %
29.03.2020 15:06 3,5 C 3,9 C 2,8 C 89 % 1029,5 hPa 0,0 l/m 0 min 0 min 165 W/m 19,3 km/h (3 Bft) 97,87 %
29.03.2020 15:08 3,5 C 3,9 C 2,8 C 89 % 1029,5 hPa 0,0 l/m 0 min 0 min 144 W/m 12,9 km/h (3 Bft) 97,87 %
29.03.2020 15:10 3,6 C 3,3 C 2,8 C 89 % 1029,4 hPa 0,0 l/m 0 min 0 min 130 W/m 19,3 km/h (3 Bft) 97,87 %
29.03.2020 15:12 3,6 C 3,3 C 2,8 C 89 % 1029,5 hPa 0,0 l/m 0 min 0 min 127 W/m 19,3 km/h (3 Bft) 97,83 %
29.03.2020 15:14 3,6 C 3,3 C 2,8 C 89 % 1029,5 hPa 0,0 l/m 0 min 0 min 116 W/m 22,5 km/h (4 Bft) 97,87 %
29.03.2020 15:16 3,6 C 3,3 C 2,8 C 89 % 1029,5 hPa 0,0 l/m 0 min 0 min 121 W/m 16,1 km/h (3 Bft) 97,87 %
29.03.2020 15:18 3,6 C 3,9 C 3,3 C 89 % 1029,5 hPa 0,0 l/m 0 min 0 min 208 W/m 12,9 km/h (3 Bft) 97,87 %
29.03.2020 15:20 3,6 C 3,9 C 3,3 C 89 % 1029,4 hPa 0,0 l/m 0 min 0 min 194 W/m 25,7 km/h (4 Bft) 97,87 %
29.03.2020 15:22 3,6 C 3,9 C 3,3 C 89 % 1029,5 hPa 0,0 l/m 0 min 0 min 166 W/m 16,1 km/h (3 Bft) 95,74 %
29.03.2020 15:24 3,7 C 3,9 C 3,3 C 89 % 1029,5 hPa 0,0 l/m 0 min 0 min 165 W/m 19,3 km/h (3 Bft) 97,83 %
29.03.2020 15:26 3,7 C 3,9 C 3,3 C 88 % 1029,6 hPa 0,0 l/m 0 min 0 min 190 W/m 22,5 km/h (4 Bft) 97,87 %
29.03.2020 15:28 3,7 C 3,9 C 3,3 C 88 % 1029,6 hPa 0,0 l/m 0 min 2 min 217 W/m 25,7 km/h (4 Bft) 95,74 %
29.03.2020 15:30 3,8 C 3,9 C 3,3 C 88 % 1029,6 hPa 0,0 l/m 0 min 0 min 212 W/m 22,5 km/h (4 Bft) 97,87 %
29.03.2020 15:32 3,8 C 4,4 C 3,3 C 88 % 1029,6 hPa 0,0 l/m 0 min 0 min 207 W/m 12,9 km/h (3 Bft) 95,74 %
29.03.2020 15:34 3,8 C 4,4 C 3,9 C 88 % 1029,6 hPa 0,0 l/m 0 min 2 min 208 W/m 19,3 km/h (3 Bft) 97,87 %
29.03.2020 15:36 3,9 C 4,4 C 3,9 C 88 % 1029,6 hPa 0,0 l/m 0 min 2 min 262 W/m 12,9 km/h (3 Bft) 97,83 %
29.03.2020 15:38 3,9 C 5,0 C 3,9 C 89 % 1029,7 hPa 0,0 l/m 2 min 2 min 296 W/m 12,9 km/h (3 Bft) 100,00 %
29.03.2020 15:40 4,1 C 4,4 C 3,9 C 89 % 1029,7 hPa 0,0 l/m 0 min 2 min 213 W/m 16,1 km/h (3 Bft) 97,87 %
29.03.2020 15:42 4,1 C 4,4 C 3,9 C 89 % 1029,7 hPa 0,0 l/m 0 min 0 min 174 W/m 19,3 km/h (3 Bft) 97,87 %
29.03.2020 15:44 4,1 C 3,9 C 3,3 C 89 % 1029,6 hPa 0,0 l/m 0 min 0 min 166 W/m 19,3 km/h (3 Bft) 95,74 %
29.03.2020 15:46 4,1 C 3,9 C 3,3 C 88 % 1029,8 hPa 0,0 l/m 0 min 0 min 185 W/m 16,1 km/h (3 Bft) 97,87 %
29.03.2020 15:48 4,1 C 4,4 C 3,9 C 88 % 1029,8 hPa 0,0 l/m 0 min 2 min 272 W/m 22,5 km/h (4 Bft) 95,65 %
29.03.2020 15:50 4,1 C 5,6 C 3,9 C 88 % 1029,8 hPa 0,0 l/m 2 min 0 min 358 W/m 12,9 km/h (3 Bft) 93,62 %
29.03.2020 15:52 4,2 C 5,6 C 4,4 C 89 % 1029,7 hPa 0,0 l/m 2 min 0 min 308 W/m 16,1 km/h (3 Bft) 93,62 %
29.03.2020 15:54 4,2 C 5,0 C 3,9 C 89 % 1029,7 hPa 0,0 l/m 0 min 0 min 234 W/m 25,7 km/h (4 Bft) 97,87 %
29.03.2020 15:56 4,2 C 5,0 C 3,9 C 88 % 1029,7 hPa 0,0 l/m 0 min 0 min 243 W/m 25,7 km/h (4 Bft) 97,87 %
29.03.2020 15:58 4,2 C 5,6 C 3,9 C 88 % 1029,8 hPa 0,0 l/m 2 min 0 min 297 W/m 25,7 km/h (4 Bft) 97,87 %
29.03.2020 16:00 4,2 C 5,0 C 3,9 C 88 % 1029,8 hPa 0,0 l/m 0 min 0 min 247 W/m 16,1 km/h (3 Bft) 97,83 %
29.03.2020 16:02 4,2 C 4,4 C 3,3 C 87 % 1029,7 hPa 0,0 l/m 0 min 2 min 207 W/m 25,7 km/h (4 Bft) 95,74 %
29.03.2020 16:04 4,2 C 4,4 C 3,3 C 87 % 1029,8 hPa 0,0 l/m 0 min 2 min 210 W/m 22,5 km/h (4 Bft) 97,87 %
29.03.2020 16:06 4,1 C 4,4 C 3,3 C 87 % 1029,9 hPa 0,0 l/m 0 min 0 min 197 W/m 35,4 km/h (5 Bft) 97,87 %
29.03.2020 16:08 4,1 C 3,9 C 2,8 C 86 % 1029,9 hPa 0,0 l/m 0 min 2 min 193 W/m 32,2 km/h (5 Bft) 97,87 %
29.03.2020 16:10 4,0 C 3,9 C 2,8 C 86 % 1029,9 hPa 0,0 l/m 0 min 2 min 162 W/m 19,3 km/h (3 Bft) 97,83 %
29.03.2020 16:12 3,9 C 3,3 C 2,8 C 87 % 1030,0 hPa 0,0 l/m 0 min 2 min 138 W/m 22,5 km/h (4 Bft) 95,74 %
29.03.2020 16:14 3,8 C 3,3 C 2,8 C 87 % 1030,0 hPa 0,0 l/m 0 min 2 min 141 W/m 29,0 km/h (5 Bft) 95,74 %
29.03.2020 16:16 3,8 C 3,3 C 2,8 C 87 % 1030,0 hPa 0,0 l/m 0 min 2 min 178 W/m 25,7 km/h (4 Bft) 95,74 %
29.03.2020 16:18 3,7 C 3,3 C 2,8 C 87 % 1030,0 hPa 0,0 l/m 0 min 2 min 203 W/m 25,7 km/h (4 Bft) 95,74 %
29.03.2020 16:20 3,8 C 3,9 C 3,3 C 88 % 1030,0 hPa 0,0 l/m 0 min 2 min 252 W/m 6,4 km/h (2 Bft) 95,74 %
29.03.2020 16:22 3,8 C 3,9 C 3,3 C 88 % 1030,0 hPa 0,0 l/m 2 min 2 min 278 W/m 12,9 km/h (3 Bft) 91,30 %
29.03.2020 16:24 3,8 C 3,9 C 3,3 C 88 % 1030,1 hPa 0,0 l/m 0 min 2 min 246 W/m 19,3 km/h (3 Bft) 95,74 %
29.03.2020 16:26 3,8 C 3,9 C 3,3 C 89 % 1030,0 hPa 0,0 l/m 0 min 2 min 233 W/m 16,1 km/h (3 Bft) 95,74 %
29.03.2020 16:28 3,8 C 3,3 C 2,8 C 89 % 1030,0 hPa 0,0 l/m 0 min 2 min 181 W/m 25,7 km/h (4 Bft) 93,62 %
29.03.2020 16:30 3,8 C 3,3 C 2,8 C 89 % 1029,9 hPa 0,0 l/m 0 min 2 min 174 W/m 29,0 km/h (5 Bft) 91,49 %
29.03.2020 16:32 3,7 C 3,3 C 2,8 C 89 % 1030,0 hPa 0,0 l/m 0 min 2 min 188 W/m 22,5 km/h (4 Bft) 95,74 %
29.03.2020 16:34 3,7 C 3,3 C 2,8 C 89 % 1030,1 hPa 0,0 l/m 0 min 2 min 190 W/m 22,5 km/h (4 Bft) 95,65 %
29.03.2020 16:36 3,6 C 3,3 C 2,8 C 89 % 1030,1 hPa 0,0 l/m 0 min 2 min 196 W/m 12,9 km/h (3 Bft) 95,74 %
29.03.2020 16:38 3,7 C 3,3 C 2,8 C 90 % 1030,1 hPa 0,0 l/m 0 min 2 min 163 W/m 22,5 km/h (4 Bft) 95,74 %
29.03.2020 16:40 3,6 C 3,3 C 2,8 C 90 % 1030,2 hPa 0,0 l/m 0 min 2 min 142 W/m 19,3 km/h (3 Bft) 95,74 %
29.03.2020 16:42 3,6 C 2,8 C 2,2 C 90 % 1030,3 hPa 0,0 l/m 0 min 2 min 134 W/m 19,3 km/h (3 Bft) 95,74 %
29.03.2020 16:44 3,6 C 2,8 C 2,2 C 90 % 1030,2 hPa 0,0 l/m 0 min 2 min 150 W/m 19,3 km/h (3 Bft) 59,57 %
29.03.2020 16:46 3,4 C 2,8 C 2,2 C 90 % 1030,2 hPa 0,0 l/m 0 min 2 min 147 W/m 19,3 km/h (3 Bft) 86,49 %
29.03.2020 16:48 3,4 C 2,8 C 2,2 C 90 % 1030,1 hPa 0,0 l/m 0 min 2 min 156 W/m 19,3 km/h (3 Bft) 97,87 %
29.03.2020 16:50 3,3 C 2,8 C 2,2 C 90 % 1030,1 hPa 0,0 l/m 0 min 2 min 155 W/m 19,3 km/h (3 Bft) 97,87 %
29.03.2020 16:52 3,3 C 2,8 C 2,2 C 90 % 1030,2 hPa 0,0 l/m 0 min 2 min 147 W/m 12,9 km/h (3 Bft) 95,74 %
29.03.2020 16:54 3,3 C 2,8 C 2,2 C 91 % 1030,1 hPa 0,0 l/m 0 min 0 min 130 W/m 12,9 km/h (3 Bft) 97,87 %
29.03.2020 16:56 3,2 C 2,8 C 2,2 C 90 % 1030,1 hPa 0,0 l/m 0 min 2 min 112 W/m 22,5 km/h (4 Bft) 97,87 %
29.03.2020 16:58 3,2 C 2,8 C 2,2 C 91 % 1030,2 hPa 0,0 l/m 0 min 2 min 104 W/m 6,4 km/h (2 Bft) 95,65 %
29.03.2020 17:00 3,2 C 2,8 C 2,2 C 91 % 1030,2 hPa 0,0 l/m 0 min 2 min 112 W/m 25,7 km/h (4 Bft) 97,87 %
29.03.2020 17:02 3,2 C 2,8 C 2,2 C 91 % 1030,2 hPa 0,0 l/m 0 min 2 min 130 W/m 16,1 km/h (3 Bft) 97,87 %
29.03.2020 17:04 3,3 C 2,8 C 2,8 C 91 % 1030,1 hPa 0,0 l/m 0 min 2 min 142 W/m 6,4 km/h (2 Bft) 100,00 %
29.03.2020 17:06 3,3 C 2,8 C 2,2 C 91 % 1030,2 hPa 0,0 l/m 0 min 2 min 133 W/m 6,4 km/h (2 Bft) 100,00 %
29.03.2020 17:08 3,3 C 2,8 C 2,2 C 91 % 1030,3 hPa 0,0 l/m 0 min 2 min 113 W/m 12,9 km/h (3 Bft) 100,00 %
29.03.2020 17:10 3,3 C 2,2 C 2,2 C 92 % 1030,3 hPa 0,0 l/m 0 min 2 min 85 W/m 9,7 km/h (2 Bft) 100,00 %
29.03.2020 17:12 3,3 C 2,2 C 2,2 C 92 % 1030,3 hPa 0,0 l/m 0 min 2 min 87 W/m 9,7 km/h (2 Bft) 97,87 %
29.03.2020 17:14 3,2 C 2,2 C 2,2 C 92 % 1030,4 hPa 0,0 l/m 0 min 2 min 109 W/m 12,9 km/h (3 Bft) 100,00 %
29.03.2020 17:16 3,2 C 2,8 C 2,2 C 92 % 1030,4 hPa 0,0 l/m 0 min 2 min 112 W/m 3,2 km/h (1 Bft) 100,00 %
29.03.2020 17:18 3,2 C 2,2 C 2,2 C 92 % 1030,3 hPa 0,0 l/m 0 min 2 min 119 W/m 19,3 km/h (3 Bft) 100,00 %
29.03.2020 17:20 3,2 C 2,8 C 2,2 C 92 % 1030,4 hPa 0,0 l/m 0 min 2 min 131 W/m 9,7 km/h (2 Bft) 100,00 %
29.03.2020 17:22 3,2 C 2,8 C 2,2 C 92 % 1030,3 hPa 0,0 l/m 0 min 2 min 131 W/m 12,9 km/h (3 Bft) 100,00 %
29.03.2020 17:24 3,3 C 2,8 C 2,8 C 92 % 1030,3 hPa 0,0 l/m 0 min 0 min 128 W/m 3,2 km/h (1 Bft) 100,00 %
29.03.2020 17:26 3,3 C 2,8 C 2,8 C 92 % 1030,3 hPa 0,0 l/m 0 min 0 min 130 W/m 3,2 km/h (1 Bft) 100,00 %
29.03.2020 17:28 3,3 C 2,8 C 2,8 C 92 % 1030,3 hPa 0,0 l/m 0 min 0 min 139 W/m 3,2 km/h (1 Bft) 100,00 %
29.03.2020 17:30 3,3 C 3,3 C 2,8 C 93 % 1030,3 hPa 0,0 l/m 0 min 0 min 159 W/m 6,4 km/h (2 Bft) 95,74 %
29.03.2020 17:32 3,3 C 3,3 C 2,8 C 93 % 1030,3 hPa 0,0 l/m 2 min 0 min 212 W/m 22,5 km/h (4 Bft) 100,00 %
29.03.2020 17:34 3,4 C 3,3 C 2,8 C 93 % 1030,3 hPa 0,0 l/m 0 min 0 min 174 W/m 9,7 km/h (2 Bft) 97,87 %
29.03.2020 17:36 3,4 C 3,3 C 2,8 C 93 % 1030,3 hPa 0,0 l/m 0 min 0 min 166 W/m 0,0 km/h (0 Bft) 97,87 %
29.03.2020 17:38 3,5 C 3,9 C 3,3 C 93 % 1030,3 hPa 0,0 l/m 0 min 0 min 175 W/m 0,0 km/h (0 Bft) 97,87 %
29.03.2020 17:40 3,5 C 3,3 C 3,3 C 93 % 1030,3 hPa 0,0 l/m 0 min 0 min 176 W/m 3,2 km/h (1 Bft) 100,00 %
29.03.2020 17:42 3,6 C 3,9 C 3,3 C 93 % 1030,3 hPa 0,0 l/m 2 min 0 min 187 W/m 0,0 km/h (0 Bft) 97,87 %
29.03.2020 17:44 3,6 C 3,9 C 3,3 C 93 % 1030,3 hPa 0,0 l/m 2 min 0 min 180 W/m 3,2 km/h (1 Bft) 97,87 %
29.03.2020 17:46 3,7 C 3,9 C 3,3 C 93 % 1030,3 hPa 0,0 l/m 0 min 0 min 163 W/m 3,2 km/h (1 Bft) 100,00 %
29.03.2020 17:48 3,7 C 3,9 C 3,3 C 93 % 1030,3 hPa 0,0 l/m 0 min 0 min 141 W/m 0,0 km/h (0 Bft) 97,87 %
29.03.2020 17:50 3,7 C 3,3 C 3,3 C 94 % 1030,3 hPa 0,0 l/m 0 min 0 min 133 W/m 6,4 km/h (2 Bft) 97,87 %
29.03.2020 17:52 3,8 C 3,3 C 3,3 C 93 % 1030,3 hPa 0,0 l/m 0 min 0 min 120 W/m 9,7 km/h (2 Bft) 97,83 %
29.03.2020 17:54 3,8 C 3,9 C 3,3 C 93 % 1030,2 hPa 0,0 l/m 0 min 0 min 116 W/m 0,0 km/h (0 Bft) 97,87 %
29.03.2020 17:56 3,8 C 3,3 C 3,3 C 93 % 1030,3 hPa 0,0 l/m 0 min 0 min 107 W/m 0,0 km/h (0 Bft) 97,87 %
29.03.2020 17:58 3,8 C 3,3 C 3,3 C 93 % 1030,3 hPa 0,0 l/m 0 min 0 min 102 W/m 3,2 km/h (1 Bft) 95,74 %
29.03.2020 18:00 3,8 C 3,3 C 3,3 C 93 % 1030,3 hPa 0,0 l/m 0 min 0 min 97 W/m 0,0 km/h (0 Bft) 97,87 %
29.03.2020 18:02 3,8 C 3,3 C 3,3 C 93 % 1030,4 hPa 0,0 l/m 0 min 0 min 91 W/m 6,4 km/h (2 Bft) 95,74 %
29.03.2020 18:04 3,8 C 3,3 C 3,3 C 93 % 1030,4 hPa 0,0 l/m 0 min 0 min 84 W/m 0,0 km/h (0 Bft) 97,83 %
29.03.2020 18:07 3,9 C 3,3 C 2,8 C 93 % 1030,4 hPa 0,0 l/m 0 min 0 min 49 W/m 12,9 km/h (3 Bft) 97,83 %
29.03.2020 18:08 3,9 C 3,3 C 2,8 C 93 % 1030,4 hPa 0,0 l/m 0 min 0 min 65 W/m 12,9 km/h (3 Bft) 97,80 %
29.03.2020 18:10 3,8 C 3,3 C 2,8 C 93 % 1030,4 hPa 0,0 l/m 0 min 0 min 30 W/m 12,9 km/h (3 Bft) 97,87 %
29.03.2020 18:12 3,8 C 2,8 C 2,2 C 93 % 1030,4 hPa 0,0 l/m 0 min 0 min 22 W/m 12,9 km/h (3 Bft) 97,87 %
29.03.2020 18:14 3,8 C 2,8 C 2,2 C 92 % 1030,4 hPa 0,0 l/m 0 min 0 min 18 W/m 35,4 km/h (5 Bft) 97,87 %
29.03.2020 18:16 3,7 C 2,8 C 2,2 C 92 % 1030,5 hPa 0,0 l/m 0 min 0 min 20 W/m 16,1 km/h (3 Bft) 97,83 %
29.03.2020 18:18 3,7 C 2,8 C 2,2 C 91 % 1030,4 hPa 0,0 l/m 0 min 0 min 27 W/m 16,1 km/h (3 Bft) 97,87 %
29.03.2020 18:20 3,6 C 2,8 C 2,2 C 91 % 1030,5 hPa 0,0 l/m 0 min 0 min 30 W/m 16,1 km/h (3 Bft) 97,87 %
29.03.2020 18:22 3,6 C 2,8 C 2,2 C 90 % 1030,5 hPa 0,0 l/m 0 min 0 min 26 W/m 16,1 km/h (3 Bft) 97,87 %
29.03.2020 18:24 3,6 C 2,8 C 2,2 C 89 % 1030,5 hPa 0,0 l/m 0 min 0 min 25 W/m 6,4 km/h (2 Bft) 97,87 %
29.03.2020 18:26 3,6 C 2,8 C 2,2 C 88 % 1030,5 hPa 0,0 l/m 0 min 0 min 24 W/m 25,7 km/h (4 Bft) 97,83 %
29.03.2020 18:28 3,6 C 2,8 C 2,2 C 87 % 1030,6 hPa 0,0 l/m 0 min 0 min 25 W/m 19,3 km/h (3 Bft) 97,87 %
29.03.2020 18:30 3,6 C 2,8 C 2,2 C 87 % 1030,5 hPa 0,0 l/m 0 min 0 min 26 W/m 19,3 km/h (3 Bft) 97,87 %
29.03.2020 18:32 3,6 C 2,8 C 2,2 C 86 % 1030,6 hPa 0,0 l/m 0 min 0 min 24 W/m 3,2 km/h (1 Bft) 100,00 %
29.03.2020 18:34 3,6 C 2,8 C 2,2 C 86 % 1030,6 hPa 0,0 l/m 0 min 0 min 21 W/m 12,9 km/h (3 Bft) 100,00 %
29.03.2020 18:36 3,6 C 2,8 C 2,2 C 85 % 1030,6 hPa 0,0 l/m 0 min 0 min 22 W/m 9,7 km/h (2 Bft) 100,00 %
29.03.2020 18:38 3,6 C 2,8 C 2,2 C 85 % 1030,6 hPa 0,0 l/m 0 min 0 min 28 W/m 0,0 km/h (0 Bft) 95,74 %
29.03.2020 18:40 3,6 C 3,3 C 2,2 C 84 % 1030,7 hPa 0,0 l/m 0 min 0 min 40 W/m 16,1 km/h (3 Bft) 100,00 %
29.03.2020 18:42 3,6 C 3,3 C 2,2 C 84 % 1030,7 hPa 0,0 l/m 0 min 0 min 48 W/m 16,1 km/h (3 Bft) 100,00 %
29.03.2020 18:44 3,7 C 3,3 C 2,2 C 84 % 1030,7 hPa 0,0 l/m 0 min 0 min 51 W/m 6,4 km/h (2 Bft) 100,00 %
29.03.2020 18:46 3,7 C 3,3 C 2,2 C 83 % 1030,8 hPa 0,0 l/m 0 min 0 min 53 W/m 9,7 km/h (2 Bft) 100,00 %
29.03.2020 18:48 3,7 C 3,9 C 2,2 C 83 % 1030,8 hPa 0,0 l/m 0 min 0 min 54 W/m 25,7 km/h (4 Bft) 100,00 %
29.03.2020 18:50 3,8 C 3,9 C 2,2 C 82 % 1030,8 hPa 0,0 l/m 0 min 0 min 56 W/m 25,7 km/h (4 Bft) 97,87 %
29.03.2020 18:52 3,8 C 3,9 C 2,2 C 82 % 1030,9 hPa 0,0 l/m 0 min 0 min 62 W/m 16,1 km/h (3 Bft) 100,00 %
29.03.2020 18:54 3,8 C 3,9 C 2,8 C 81 % 1030,8 hPa 0,0 l/m 0 min 0 min 64 W/m 9,7 km/h (2 Bft) 100,00 %
29.03.2020 18:56 3,8 C 3,9 C 2,8 C 81 % 1030,9 hPa 0,0 l/m 0 min 0 min 62 W/m 3,2 km/h (1 Bft) 100,00 %
29.03.2020 18:58 3,9 C 3,9 C 2,8 C 81 % 1030,9 hPa 0,0 l/m 0 min 0 min 54 W/m 32,2 km/h (5 Bft) 100,00 %
29.03.2020 19:00 3,9 C 3,9 C 2,8 C 81 % 1031,0 hPa 0,0 l/m 0 min 0 min 47 W/m 9,7 km/h (2 Bft) 100,00 %
29.03.2020 19:02 3,9 C 3,9 C 2,8 C 81 % 1031,0 hPa 0,0 l/m 0 min 0 min 37 W/m 19,3 km/h (3 Bft) 98,00 %
29.03.2020 19:04 3,9 C 3,9 C 2,8 C 80 % 1031,0 hPa 0,0 l/m 0 min 0 min 29 W/m 29,0 km/h (5 Bft) 100,00 %
29.03.2020 19:06 3,9 C 3,9 C 2,8 C 79 % 1031,0 hPa 0,0 l/m 0 min 0 min 30 W/m 9,7 km/h (2 Bft) 100,00 %
29.03.2020 19:08 3,9 C 3,9 C 2,8 C 79 % 1031,0 hPa 0,0 l/m 0 min 0 min 29 W/m 9,7 km/h (2 Bft) 100,00 %
29.03.2020 19:10 3,9 C 3,9 C 2,8 C 78 % 1031,1 hPa 0,0 l/m 0 min 0 min 29 W/m 12,9 km/h (3 Bft) 100,00 %
29.03.2020 19:12 4,0 C 3,3 C 2,8 C 78 % 1031,1 hPa 0,0 l/m 0 min 0 min 30 W/m 3,2 km/h (1 Bft) 100,00 %
29.03.2020 19:14 4,0 C 3,3 C 2,8 C 78 % 1031,1 hPa 0,0 l/m 0 min 0 min 29 W/m 0,0 km/h (0 Bft) 100,00 %
29.03.2020 19:16 4,0 C 3,3 C 2,8 C 77 % 1031,2 hPa 0,0 l/m 0 min 0 min 25 W/m 0,0 km/h (0 Bft) 97,87 %
29.03.2020 19:18 4,0 C 3,3 C 2,8 C 77 % 1031,2 hPa 0,0 l/m 0 min 0 min 22 W/m 0,0 km/h (0 Bft) 97,87 %
29.03.2020 19:20 4,0 C 3,3 C 2,8 C 77 % 1031,2 hPa 0,0 l/m 0 min 0 min 19 W/m 9,7 km/h (2 Bft) 91,49 %
29.03.2020 19:22 4,0 C 3,3 C 2,8 C 77 % 1031,2 hPa 0,0 l/m 0 min 0 min 17 W/m 0,0 km/h (0 Bft) 95,74 %
29.03.2020 19:24 4,0 C 3,3 C 2,8 C 77 % 1031,3 hPa 0,0 l/m 0 min 0 min 16 W/m 0,0 km/h (0 Bft) 97,87 %
29.03.2020 19:26 4,0 C 3,3 C 2,8 C 76 % 1031,3 hPa 0,0 l/m 0 min 0 min 14 W/m 3,2 km/h (1 Bft) 95,92 %
29.03.2020 19:28 4,0 C 3,3 C 2,8 C 75 % 1031,3 hPa 0,0 l/m 0 min 0 min 14 W/m 16,1 km/h (3 Bft) 95,65 %
29.03.2020 19:30 4,0 C 3,3 C 2,8 C 75 % 1031,4 hPa 0,0 l/m 0 min 0 min 14 W/m 41,8 km/h (6 Bft) 94,44 %
29.03.2020 19:32 4,0 C 3,3 C 2,8 C 75 % 1031,4 hPa 0,0 l/m 0 min 0 min 13 W/m 12,9 km/h (3 Bft) 95,74 %
29.03.2020 19:34 4,0 C 3,3 C 2,8 C 75 % 1031,4 hPa 0,0 l/m 0 min 0 min 11 W/m 19,3 km/h (3 Bft) 97,37 %
29.03.2020 19:36 4,0 C 3,3 C 2,8 C 75 % 1031,5 hPa 0,0 l/m 0 min 0 min 11 W/m 16,1 km/h (3 Bft) 93,88 %
29.03.2020 19:38 4,0 C 3,3 C 2,8 C 74 % 1031,4 hPa 0,0 l/m 0 min 0 min 11 W/m 29,0 km/h (5 Bft) 95,74 %
29.03.2020 19:40 4,0 C 3,3 C 2,8 C 74 % 1031,5 hPa 0,0 l/m 0 min 0 min 10 W/m 19,3 km/h (3 Bft) 93,48 %
29.03.2020 19:42 4,0 C 3,3 C 2,8 C 74 % 1031,4 hPa 0,0 l/m 0 min 0 min 11 W/m 12,9 km/h (3 Bft) 91,49 %
29.03.2020 19:44 4,0 C 3,3 C 2,8 C 74 % 1031,5 hPa 0,0 l/m 0 min 0 min 10 W/m 0,0 km/h (0 Bft) 95,74 %
29.03.2020 19:46 4,0 C 3,3 C 2,8 C 75 % 1031,5 hPa 0,0 l/m 0 min 0 min 9 W/m 6,4 km/h (2 Bft) 96,23 %
29.03.2020 19:48 4,0 C 3,3 C 2,8 C 74 % 1031,4 hPa 0,0 l/m 0 min 0 min 9 W/m 16,1 km/h (3 Bft) 82,98 %
29.03.2020 19:50 4,0 C 3,3 C 2,8 C 74 % 1031,6 hPa 0,0 l/m 0 min 0 min 7 W/m 12,9 km/h (3 Bft) 65,96 %
29.03.2020 19:52 4,0 C 3,3 C 2,8 C 74 % 1031,6 hPa 0,0 l/m 0 min 0 min 7 W/m 0,0 km/h (0 Bft) 93,62 %
29.03.2020 19:54 3,9 C 3,3 C 2,8 C 74 % 1031,6 hPa 0,0 l/m 0 min 0 min 5 W/m 0,0 km/h (0 Bft) 95,74 %
29.03.2020 19:56 3,9 C 3,3 C 2,8 C 74 % 1031,6 hPa 0,0 l/m 0 min 0 min 5 W/m 6,4 km/h (2 Bft) 91,49 %
29.03.2020 19:58 3,9 C 3,3 C 2,8 C 74 % 1031,7 hPa 0,0 l/m 0 min 0 min 0 W/m 0,0 km/h (0 Bft) 94,74 %
29.03.2020 20:00 3,9 C 3,3 C 2,8 C 75 % 1031,7 hPa 0,0 l/m 0 min 0 min 0 W/m 0,0 km/h (0 Bft) 91,84 %
29.03.2020 20:02 3,9 C 3,3 C 2,8 C 75 % 1031,7 hPa 0,0 l/m 0 min 0 min 0 W/m 0,0 km/h (0 Bft) 95,74 %
29.03.2020 20:04 3,9 C 3,3 C 2,8 C 75 % 1031,7 hPa 0,0 l/m 0 min 0 min 0 W/m 0,0 km/h (0 Bft) 100,00 %
29.03.2020 20:06 3,9 C 3,3 C 2,8 C 75 % 1031,8 hPa 0,0 l/m 0 min 0 min 0 W/m 3,2 km/h (1 Bft) 100,00 %
29.03.2020 20:08 3,9 C 3,3 C 2,8 C 74 % 1031,8 hPa 0,0 l/m 0 min 0 min 0 W/m 0,0 km/h (0 Bft) 94,74 %
29.03.2020 20:09 3,9 C 3,3 C 2,8 C 74 % 1031,8 hPa 0,0 l/m 0 min 0 min 0 W/m 16,1 km/h (3 Bft) 95,74 %
29.03.2020 20:12 3,8 C 3,3 C 2,8 C 74 % 1031,8 hPa 0,0 l/m 0 min 0 min 0 W/m 12,9 km/h (3 Bft) 93,48 %
29.03.2020 20:14 3,8 C 3,3 C 2,2 C 73 % 1031,9 hPa 0,0 l/m 0 min 0 min 0 W/m 3,2 km/h (1 Bft) 95,74 %
29.03.2020 20:16 3,8 C 3,3 C 2,2 C 73 % 1031,9 hPa 0,0 l/m 0 min 0 min 0 W/m 12,9 km/h (3 Bft) 95,74 %
29.03.2020 20:18 3,8 C 3,3 C 2,2 C 73 % 1031,9 hPa 0,0 l/m 0 min 0 min 0 W/m 9,7 km/h (2 Bft) 93,62 %
29.03.2020 20:20 3,8 C 3,3 C 2,2 C 73 % 1032,0 hPa 0,0 l/m 0 min 0 min 0 W/m 12,9 km/h (3 Bft) 93,62 %
29.03.2020 20:22 3,8 C 3,3 C 2,2 C 73 % 1032,0 hPa 0,0 l/m 0 min 0 min 0 W/m 6,4 km/h (2 Bft) 95,74 %
29.03.2020 20:24 3,8 C 3,3 C 2,2 C 73 % 1032,0 hPa 0,0 l/m 0 min 0 min 0 W/m 12,9 km/h (3 Bft) 95,65 %
29.03.2020 20:26 3,8 C 3,3 C 2,8 C 73 % 1032,2 hPa 0,0 l/m 0 min 0 min 0 W/m 6,4 km/h (2 Bft) 95,74 %
29.03.2020 20:28 3,8 C 3,3 C 2,8 C 73 % 1032,2 hPa 0,0 l/m 0 min 0 min 0 W/m 12,9 km/h (3 Bft) 93,62 %
29.03.2020 20:30 3,8 C 3,3 C 2,8 C 73 % 1032,2 hPa 0,0 l/m 0 min 0 min 0 W/m 9,7 km/h (2 Bft) 95,74 %
29.03.2020 20:32 3,8 C 3,3 C 2,8 C 73 % 1032,3 hPa 0,0 l/m 0 min 0 min 0 W/m 0,0 km/h (0 Bft) 91,49 %
29.03.2020 20:34 3,8 C 3,3 C 2,8 C 73 % 1032,2 hPa 0,0 l/m 0 min 0 min 0 W/m 3,2 km/h (1 Bft) 95,74 %
29.03.2020 20:36 3,8 C 3,3 C 2,8 C 73 % 1032,3 hPa 0,0 l/m 0 min 0 min 0 W/m 0,0 km/h (0 Bft) 95,65 %
29.03.2020 20:38 3,8 C 3,3 C 2,8 C 73 % 1032,4 hPa 0,0 l/m 0 min 0 min 0 W/m 16,1 km/h (3 Bft) 98,31 %
29.03.2020 20:40 3,8 C 3,3 C 2,8 C 72 % 1032,4 hPa 0,0 l/m 0 min 0 min 0 W/m 16,1 km/h (3 Bft) 94,29 %
29.03.2020 20:42 3,8 C 3,3 C 2,8 C 73 % 1032,4 hPa 0,0 l/m 0 min 0 min 0 W/m 3,2 km/h (1 Bft) 97,87 %
29.03.2020 20:44 3,8 C 3,3 C 2,8 C 72 % 1032,5 hPa 0,0 l/m 0 min 0 min 0 W/m 6,4 km/h (2 Bft) 97,87 %
29.03.2020 20:46 3,8 C 3,3 C 2,8 C 72 % 1032,5 hPa 0,0 l/m 0 min 0 min 0 W/m 0,0 km/h (0 Bft) 93,48 %
29.03.2020 20:48 3,8 C 3,3 C 2,8 C 72 % 1032,5 hPa 0,0 l/m 0 min 0 min 0 W/m 19,3 km/h (3 Bft) 100,00 %
29.03.2020 20:50 3,9 C 3,3 C 2,8 C 72 % 1032,6 hPa 0,0 l/m 0 min 0 min 0 W/m 9,7 km/h (2 Bft) 96,00 %
29.03.2020 20:52 3,9 C 3,3 C 2,8 C 72 % 1032,7 hPa 0,0 l/m 0 min 0 min 0 W/m 0,0 km/h (0 Bft) 100,00 %
29.03.2020 20:54 3,9 C 3,3 C 2,8 C 72 % 1032,6 hPa 0,0 l/m 0 min 0 min 0 W/m 0,0 km/h (0 Bft) 100,00 %
29.03.2020 20:56 3,9 C 3,3 C 2,8 C 72 % 1032,6 hPa 0,0 l/m 0 min 0 min 0 W/m 0,0 km/h (0 Bft) 100,00 %
29.03.2020 20:58 3,9 C 3,3 C 2,8 C 72 % 1032,6 hPa 0,0 l/m 0 min 0 min 0 W/m 9,7 km/h (2 Bft) 100,00 %
29.03.2020 21:00 3,9 C 3,3 C 2,8 C 72 % 1032,7 hPa 0,0 l/m 0 min 0 min 0 W/m 3,2 km/h (1 Bft) 100,00 %
29.03.2020 21:02 3,9 C 3,3 C 2,8 C 71 % 1032,7 hPa 0,0 l/m 0 min 0 min 0 W/m 0,0 km/h (0 Bft) 100,00 %
29.03.2020 21:04 3,9 C 3,3 C 2,8 C 71 % 1032,7 hPa 0,0 l/m 0 min 0 min 0 W/m 0,0 km/h (0 Bft) 100,00 %
29.03.2020 21:06 3,9 C 3,3 C 2,8 C 71 % 1032,7 hPa 0,0 l/m 0 min 0 min 0 W/m 0,0 km/h (0 Bft) 97,87 %
29.03.2020 21:08 3,9 C 3,3 C 2,8 C 71 % 1032,7 hPa 0,0 l/m 0 min 0 min 0 W/m 0,0 km/h (0 Bft) 100,00 %
29.03.2020 21:10 3,9 C 3,3 C 2,8 C 70 % 1032,8 hPa 0,0 l/m 0 min 0 min 0 W/m 0,0 km/h (0 Bft) 100,00 %
29.03.2020 21:12 4,0 C 3,3 C 2,8 C 70 % 1032,8 hPa 0,0 l/m 0 min 0 min 0 W/m 9,7 km/h (2 Bft) 97,87 %
29.03.2020 21:14 4,0 C 3,3 C 2,8 C 71 % 1032,8 hPa 0,0 l/m 0 min 0 min 0 W/m 0,0 km/h (0 Bft) 100,00 %
29.03.2020 21:16 4,0 C 3,3 C 2,8 C 71 % 1032,9 hPa 0,0 l/m 0 min 0 min 0 W/m 9,7 km/h (2 Bft) 100,00 %
29.03.2020 21:18 4,0 C 3,3 C 2,8 C 71 % 1032,9 hPa 0,0 l/m 0 min 0 min 0 W/m 0,0 km/h (0 Bft) 97,87 %
29.03.2020 21:20 3,9 C 3,3 C 2,8 C 70 % 1032,9 hPa 0,0 l/m 0 min 0 min 0 W/m 0,0 km/h (0 Bft) 100,00 %
29.03.2020 21:22 3,9 C 3,3 C 2,8 C 68 % 1032,9 hPa 0,0 l/m 0 min 0 min 0 W/m 0,0 km/h (0 Bft) 100,00 %
29.03.2020 21:24 3,9 C 3,3 C 2,8 C 67 % 1032,9 hPa 0,0 l/m 0 min 0 min 0 W/m 3,2 km/h (1 Bft) 100,00 %
29.03.2020 21:26 3,8 C 3,3 C 2,8 C 66 % 1033,0 hPa 0,0 l/m 0 min 0 min 0 W/m 16,1 km/h (3 Bft) 100,00 %
29.03.2020 21:28 3,8 C 3,3 C 2,2 C 65 % 1033,0 hPa 0,0 l/m 0 min 0 min 0 W/m 19,3 km/h (3 Bft) 100,00 %
29.03.2020 21:30 3,8 C 3,3 C 2,2 C 64 % 1033,1 hPa 0,0 l/m 0 min 0 min 0 W/m 0,0 km/h (0 Bft) 100,00 %
29.03.2020 21:32 3,8 C 3,3 C 2,2 C 64 % 1033,1 hPa 0,0 l/m 0 min 0 min 0 W/m 16,1 km/h (3 Bft) 97,83 %
29.03.2020 21:34 3,8 C 3,3 C 2,2 C 63 % 1033,1 hPa 0,0 l/m 0 min 0 min 0 W/m 29,0 km/h (5 Bft) 97,87 %
29.03.2020 21:36 3,7 C 2,8 C 2,2 C 63 % 1033,2 hPa 0,0 l/m 0 min 0 min 0 W/m 9,7 km/h (2 Bft) 97,87 %
29.03.2020 21:38 3,7 C 2,8 C 2,2 C 63 % 1033,1 hPa 0,0 l/m 0 min 0 min 0 W/m 29,0 km/h (5 Bft) 100,00 %
29.03.2020 21:40 3,7 C 2,8 C 2,2 C 63 % 1033,1 hPa 0,0 l/m 0 min 0 min 0 W/m 12,9 km/h (3 Bft) 100,00 %
29.03.2020 21:42 3,7 C 2,8 C 2,2 C 63 % 1033,2 hPa 0,0 l/m 0 min 0 min 0 W/m 16,1 km/h (3 Bft) 97,87 %
29.03.2020 21:44 3,6 C 2,8 C 2,2 C 62 % 1033,2 hPa 0,0 l/m 0 min 0 min 0 W/m 25,7 km/h (4 Bft) 100,00 %
29.03.2020 21:46 3,6 C 2,8 C 2,2 C 62 % 1033,2 hPa 0,0 l/m 0 min 0 min 0 W/m 19,3 km/h (3 Bft) 100,00 %
29.03.2020 21:48 3,6 C 2,8 C 2,2 C 62 % 1033,2 hPa 0,0 l/m 0 min 0 min 0 W/m 12,9 km/h (3 Bft) 95,74 %
29.03.2020 21:50 3,6 C 2,8 C 2,2 C 62 % 1033,3 hPa 0,0 l/m 0 min 0 min 0 W/m 16,1 km/h (3 Bft) 100,00 %
29.03.2020 21:52 3,6 C 2,8 C 2,2 C 61 % 1033,3 hPa 0,0 l/m 0 min 0 min 0 W/m 19,3 km/h (3 Bft) 100,00 %
29.03.2020 21:54 3,5 C 2,8 C 2,2 C 61 % 1033,3 hPa 0,0 l/m 0 min 0 min 0 W/m 22,5 km/h (4 Bft) 100,00 %
29.03.2020 21:56 3,4 C 2,8 C 2,2 C 61 % 1033,4 hPa 0,0 l/m 0 min 0 min 0 W/m 19,3 km/h (3 Bft) 100,00 %
29.03.2020 21:58 3,4 C 2,8 C 2,2 C 61 % 1033,5 hPa 0,0 l/m 0 min 0 min 0 W/m 19,3 km/h (3 Bft) 100,00 %
29.03.2020 22:00 3,4 C 2,8 C 2,2 C 61 % 1033,5 hPa 0,0 l/m 0 min 0 min 0 W/m 19,3 km/h (3 Bft) 95,74 %
29.03.2020 22:02 3,4 C 2,8 C 2,2 C 61 % 1033,5 hPa 0,0 l/m 0 min 0 min 0 W/m 16,1 km/h (3 Bft) 100,00 %
29.03.2020 22:04 3,3 C 2,8 C 2,2 C 61 % 1033,6 hPa 0,0 l/m 0 min 0 min 0 W/m 9,7 km/h (2 Bft) 100,00 %
29.03.2020 22:06 3,3 C 2,8 C 1,7 C 61 % 1033,6 hPa 0,0 l/m 0 min 0 min 0 W/m 12,9 km/h (3 Bft) 100,00 %
29.03.2020 22:08 3,3 C 2,8 C 1,7 C 61 % 1033,6 hPa 0,0 l/m 0 min 0 min 0 W/m 16,1 km/h (3 Bft) 97,83 %
29.03.2020 22:10 3,3 C 2,8 C 1,7 C 60 % 1033,6 hPa 0,0 l/m 0 min 0 min 0 W/m 16,1 km/h (3 Bft) 97,87 %
29.03.2020 22:12 3,3 C 2,2 C 1,7 C 61 % 1033,6 hPa 0,0 l/m 0 min 0 min 0 W/m 12,9 km/h (3 Bft) 97,87 %
29.03.2020 22:14 3,2 C 2,2 C 1,7 C 61 % 1033,6 hPa 0,0 l/m 0 min 0 min 0 W/m 12,9 km/h (3 Bft) 95,74 %
29.03.2020 22:16 3,2 C 2,2 C 1,7 C 60 % 1033,8 hPa 0,0 l/m 0 min 0 min 0 W/m 16,1 km/h (3 Bft) 97,87 %
29.03.2020 22:18 3,2 C 2,2 C 1,7 C 60 % 1033,7 hPa 0,0 l/m 0 min 0 min 0 W/m 16,1 km/h (3 Bft) 93,62 %
29.03.2020 22:20 3,1 C 2,2 C 1,7 C 60 % 1033,8 hPa 0,0 l/m 0 min 0 min 0 W/m 32,2 km/h (5 Bft) 95,65 %
29.03.2020 22:22 3,1 C 2,2 C 1,7 C 59 % 1033,8 hPa 0,0 l/m 0 min 0 min 0 W/m 19,3 km/h (3 Bft) 97,87 %
29.03.2020 22:24 3,1 C 2,2 C 1,7 C 59 % 1033,8 hPa 0,0 l/m 0 min 0 min 0 W/m 12,9 km/h (3 Bft) 97,87 %
29.03.2020 22:26 3,0 C 2,2 C 1,1 C 60 % 1033,8 hPa 0,0 l/m 0 min 0 min 0 W/m 22,5 km/h (4 Bft) 97,87 %
29.03.2020 22:28 2,9 C 1,7 C 1,1 C 59 % 1033,8 hPa 0,0 l/m 0 min 0 min 0 W/m 16,1 km/h (3 Bft) 97,87 %
29.03.2020 22:30 2,9 C 1,7 C 1,1 C 59 % 1033,8 hPa 0,0 l/m 0 min 0 min 0 W/m 19,3 km/h (3 Bft) 93,62 %
29.03.2020 22:32 2,8 C 1,7 C 1,1 C 59 % 1033,8 hPa 0,0 l/m 0 min 0 min 0 W/m 12,9 km/h (3 Bft) 93,48 %
29.03.2020 22:34 2,8 C 1,7 C 1,1 C 59 % 1033,9 hPa 0,0 l/m 0 min 0 min 0 W/m 12,9 km/h (3 Bft) 95,74 %
29.03.2020 22:36 2,7 C 1,7 C 1,1 C 59 % 1033,8 hPa 0,0 l/m 0 min 0 min 0 W/m 19,3 km/h (3 Bft) 91,49 %
29.03.2020 22:38 2,7 C 1,7 C 1,1 C 59 % 1033,8 hPa 0,0 l/m 0 min 0 min 0 W/m 25,7 km/h (4 Bft) 93,62 %
29.03.2020 22:40 2,6 C 1,7 C 1,1 C 59 % 1033,8 hPa 0,0 l/m 0 min 0 min 0 W/m 25,7 km/h (4 Bft) 93,62 %
29.03.2020 22:42 2,6 C 1,7 C 1,1 C 58 % 1033,9 hPa 0,0 l/m 0 min 0 min 0 W/m 19,3 km/h (3 Bft) 95,65 %
29.03.2020 22:44 2,5 C 1,1 C 0,6 C 59 % 1033,9 hPa 0,0 l/m 0 min 0 min 0 W/m 12,9 km/h (3 Bft) 95,74 %
29.03.2020 22:46 2,4 C 1,1 C 0,6 C 59 % 1033,9 hPa 0,0 l/m 0 min 0 min 0 W/m 16,1 km/h (3 Bft) 95,74 %
29.03.2020 22:48 2,4 C 1,1 C 0,6 C 59 % 1033,9 hPa 0,0 l/m 0 min 0 min 0 W/m 6,4 km/h (2 Bft) 95,74 %
29.03.2020 22:50 2,4 C 1,1 C 0,6 C 60 % 1034,0 hPa 0,0 l/m 0 min 0 min 0 W/m 0,0 km/h (0 Bft) 95,74 %
29.03.2020 22:52 2,3 C 0,6 C 0,6 C 61 % 1034,0 hPa 0,0 l/m 0 min 0 min 0 W/m 16,1 km/h (3 Bft) 93,62 %
29.03.2020 22:54 2,3 C 0,6 C 0,6 C 61 % 1034,0 hPa 0,0 l/m 0 min 0 min 0 W/m 6,4 km/h (2 Bft) 95,74 %
29.03.2020 22:56 2,2 C 0,6 C 0,0 C 61 % 1034,0 hPa 0,0 l/m 0 min 0 min 0 W/m 12,9 km/h (3 Bft) 97,83 %
29.03.2020 22:58 2,1 C 0,6 C 0,0 C 61 % 1034,0 hPa 0,0 l/m 0 min 0 min 0 W/m 9,7 km/h (2 Bft) 97,87 %
29.03.2020 23:00 2,1 C 0,6 C 0,0 C 62 % 1034,1 hPa 0,0 l/m 0 min 0 min 0 W/m 0,0 km/h (0 Bft) 97,87 %
29.03.2020 23:02 2,1 C 0,6 C 0,0 C 61 % 1034,1 hPa 0,0 l/m 0 min 0 min 0 W/m 0,0 km/h (0 Bft) 95,74 %
29.03.2020 23:04 1,9 C 0,6 C 0,0 C 61 % 1034,2 hPa 0,0 l/m 0 min 0 min 0 W/m 16,1 km/h (3 Bft) 97,87 %
29.03.2020 23:06 1,9 C 0,6 C 0,0 C 61 % 1034,1 hPa 0,0 l/m 0 min 0 min 0 W/m 12,9 km/h (3 Bft) 97,83 %
29.03.2020 23:08 1,8 C 0,6 C 0,0 C 61 % 1034,1 hPa 0,0 l/m 0 min 0 min 0 W/m 16,1 km/h (3 Bft) 100,00 %
29.03.2020 23:10 1,8 C 0,6 C 0,0 C 61 % 1034,2 hPa 0,0 l/m 0 min 0 min 0 W/m 19,3 km/h (3 Bft) 100,00 %
29.03.2020 23:12 1,8 C 0,6 C 0,0 C 61 % 1034,2 hPa 0,0 l/m 0 min 0 min 0 W/m 22,5 km/h (4 Bft) 97,87 %
29.03.2020 23:14 1,7 C 0,6 C 0,0 C 61 % 1034,2 hPa 0,0 l/m 0 min 0 min 0 W/m 6,4 km/h (2 Bft) 100,00 %
29.03.2020 23:16 1,7 C 0,6 C 0,0 C 61 % 1034,2 hPa 0,0 l/m 0 min 0 min 0 W/m 6,4 km/h (2 Bft) 100,00 %
29.03.2020 23:18 1,7 C 0,6 C 0,0 C 61 % 1034,2 hPa 0,0 l/m 0 min 0 min 0 W/m 0,0 km/h (0 Bft) 100,00 %
29.03.2020 23:20 1,7 C 0,6 C 0,0 C 61 % 1034,2 hPa 0,0 l/m 0 min 0 min 0 W/m 12,9 km/h (3 Bft) 100,00 %
29.03.2020 23:22 1,6 C 0,6 C 0,0 C 61 % 1034,2 hPa 0,0 l/m 0 min 0 min 0 W/m 12,9 km/h (3 Bft) 97,87 %
29.03.2020 23:24 1,6 C 0,6 C 0,0 C 61 % 1034,2 hPa 0,0 l/m 0 min 0 min 0 W/m 6,4 km/h (2 Bft) 97,87 %
29.03.2020 23:26 1,6 C 0,6 C 0,0 C 62 % 1034,3 hPa 0,0 l/m 0 min 0 min 0 W/m 9,7 km/h (2 Bft) 100,00 %
29.03.2020 23:28 1,5 C 0,6 C 0,0 C 62 % 1034,2 hPa 0,0 l/m 0 min 0 min 0 W/m 12,9 km/h (3 Bft) 97,87 %
29.03.2020 23:30 1,5 C 0,6 C 0,0 C 62 % 1034,3 hPa 0,0 l/m 0 min 0 min 0 W/m 3,2 km/h (1 Bft) 95,65 %
29.03.2020 23:32 1,4 C 0,6 C 0,0 C 62 % 1034,3 hPa 0,0 l/m 0 min 0 min 0 W/m 0,0 km/h (0 Bft) 97,87 %
29.03.2020 23:34 1,4 C 0,0 C 0,0 C 62 % 1034,3 hPa 0,0 l/m 0 min 0 min 0 W/m 0,0 km/h (0 Bft) 97,87 %
29.03.2020 23:36 1,4 C 0,0 C 0,0 C 61 % 1034,3 hPa 0,0 l/m 0 min 0 min 0 W/m 0,0 km/h (0 Bft) 97,87 %
29.03.2020 23:38 1,3 C 0,0 C 0,0 C 62 % 1034,3 hPa 0,0 l/m 0 min 0 min 0 W/m 0,0 km/h (0 Bft) 97,87 %
29.03.2020 23:40 1,3 C 0,0 C -0,6 C 62 % 1034,3 hPa 0,0 l/m 0 min 0 min 0 W/m 0,0 km/h (0 Bft) 97,87 %
29.03.2020 23:42 1,3 C 0,0 C -0,6 C 62 % 1034,2 hPa 0,0 l/m 0 min 0 min 0 W/m 0,0 km/h (0 Bft) 97,83 %
29.03.2020 23:44 1,2 C 0,0 C -0,6 C 62 % 1034,2 hPa 0,0 l/m 0 min 0 min 0 W/m 9,7 km/h (2 Bft) 97,87 %
29.03.2020 23:46 1,2 C 0,0 C -0,6 C 62 % 1034,1 hPa 0,0 l/m 0 min 0 min 0 W/m 6,4 km/h (2 Bft) 97,87 %
29.03.2020 23:48 1,2 C 0,0 C 0,0 C 61 % 1034,2 hPa 0,0 l/m 0 min 0 min 0 W/m 12,9 km/h (3 Bft) 97,87 %
29.03.2020 23:50 1,1 C 0,0 C -0,6 C 61 % 1034,2 hPa 0,0 l/m 0 min 0 min 0 W/m 9,7 km/h (2 Bft) 97,87 %
29.03.2020 23:52 1,1 C 0,0 C -0,6 C 62 % 1034,2 hPa 0,0 l/m 0 min 0 min 0 W/m 3,2 km/h (1 Bft) 97,83 %
29.03.2020 23:54 1,1 C 0,0 C -0,6 C 62 % 1034,2 hPa 0,0 l/m 0 min 0 min 0 W/m 9,7 km/h (2 Bft) 95,74 %
29.03.2020 23:56 1,1 C 0,0 C 0,0 C 62 % 1034,2 hPa 0,0 l/m 0 min 0 min 0 W/m 12,9 km/h (3 Bft) 97,87 %
29.03.2020 23:58 1,1 C 0,0 C -0,6 C 61 % 1034,1 hPa 0,0 l/m 0 min 0 min 0 W/m 6,4 km/h (2 Bft) 97,87 %
_ Min-Zeit 23:50 23:34 23:40 22:42 04:50 - - - - 00:02 06:14
Minimum _ 1,1 C 0,0 C -0,6 C 58 % 1025,6 hPa - - - - 0,0 km/h (0 Bft) 45,95 %
_ Max-Zeit 10:48 10:22 10:22 17:50 23:26 00:00 09:20 12:38 15:50 09:38 00:20
Maximum _ 5,8 C 7,8 C 7,8 C 94 % 1034,3 hPa 0,0 l/m 2 min 2 min 358 W/m 51,5 km/h
W-NW (7 Bft)
100,00 %
Durchschnitt _ 3,5 C 3,0 C 2,6 C 80 % 1028,7 hPa #0,0 l/m #40 min. #2:58 h 124 W/m 13,1 km/h (3 Bft) 96,76 %
© 2020 W. Hausmann